<?xml version='1.0' encoding='UTF-8'?><gpx version="1.1" creator="JPX - https://github.com/jenetics/jpx" xmlns="http://www.topografix.com/GPX/1/1"><trk><trkseg><trkpt lat="45.50554452247643" lon="11.913297158487472"><ele>14.833333333333334</ele><time>2026-04-03T08:11:49.002Z</time></trkpt><trkpt lat="45.505523065145034" lon="11.913446011388015"><ele>14.666666666666668</ele><time>2026-04-03T08:11:51.002Z</time></trkpt><trkpt lat="45.505498734876646" lon="11.913543819487586"><ele>14.5</ele><time>2026-04-03T08:11:52.002Z</time></trkpt><trkpt lat="45.505483730624675" lon="11.913649063493317"><ele>14.333333333333334</ele><time>2026-04-03T08:11:53.002Z</time></trkpt><trkpt lat="45.50546435731717" lon="11.91376236241314"><ele>14.166666666666668</ele><time>2026-04-03T08:11:54.002Z</time></trkpt><trkpt lat="45.50544428168798" lon="11.913881413425909"><ele>14.0</ele><time>2026-04-03T08:11:55.002Z</time></trkpt><trkpt lat="45.50542068094995" lon="11.914010445384617"><ele>13.799999999999999</ele><time>2026-04-03T08:11:56.002Z</time></trkpt><trkpt lat="45.50540186638092" lon="11.914143133495793"><ele>13.599999999999998</ele><time>2026-04-03T08:11:57.002Z</time></trkpt><trkpt lat="45.5053783719182" lon="11.914278945591768"><ele>13.4</ele><time>2026-04-03T08:11:58.002Z</time></trkpt><trkpt lat="45.50535451390746" lon="11.914423063529876"><ele>13.2</ele><time>2026-04-03T08:11:59.002Z</time></trkpt><trkpt lat="45.50532124573553" lon="11.914556389026938"><ele>13.0</ele><time>2026-04-03T08:12:00.002Z</time></trkpt><trkpt lat="45.505300612861845" lon="11.91466381877046"><ele>12.999999999999998</ele><time>2026-04-03T08:12:01.002Z</time></trkpt><trkpt lat="45.5052831592749" lon="11.914753213013707"><ele>13.0</ele><time>2026-04-03T08:12:02.002Z</time></trkpt><trkpt lat="45.505254859403856" lon="11.914920749102032"><ele>13.0</ele><time>2026-04-03T08:12:04.002Z</time></trkpt><trkpt lat="45.505237460825086" lon="11.915008670511158"><ele>13.0</ele><time>2026-04-03T08:12:05.002Z</time></trkpt><trkpt lat="45.50520344445925" lon="11.91517676511385"><ele>12.999999999999998</ele><time>2026-04-03T08:12:07.002Z</time></trkpt><trkpt lat="45.50518948421524" lon="11.915282204085887"><ele>13.0</ele><time>2026-04-03T08:12:08.002Z</time></trkpt><trkpt lat="45.505173045189245" lon="11.915385250570433"><ele>13.0</ele><time>2026-04-03T08:12:09.003Z</time></trkpt><trkpt lat="45.505153831858344" lon="11.915502366796467"><ele>13.0</ele><time>2026-04-03T08:12:10.003Z</time></trkpt><trkpt lat="45.50513230922301" lon="11.915627989872387"><ele>13.0</ele><time>2026-04-03T08:12:11.003Z</time></trkpt><trkpt lat="45.505106532227906" lon="11.915761587786175"><ele>13.0</ele><time>2026-04-03T08:12:12.003Z</time></trkpt><trkpt lat="45.505079755700116" lon="11.91590547560923"><ele>13.0</ele><time>2026-04-03T08:12:13.003Z</time></trkpt><trkpt lat="45.50505890708834" lon="11.91605548154546"><ele>13.499999999999998</ele><time>2026-04-03T08:12:14.003Z</time></trkpt><trkpt lat="45.50503738383588" lon="11.916192365079148"><ele>14.0</ele><time>2026-04-03T08:12:15.003Z</time></trkpt><trkpt lat="45.50501458651462" lon="11.916301772692917"><ele>14.5</ele><time>2026-04-03T08:12:16.003Z</time></trkpt><trkpt lat="45.504994365817176" lon="11.916393282461696"><ele>15.0</ele><time>2026-04-03T08:12:17.003Z</time></trkpt><trkpt lat="45.504977685935515" lon="11.916509184789298"><ele>15.499999999999998</ele><time>2026-04-03T08:12:18.003Z</time></trkpt><trkpt lat="45.504953636742584" lon="11.916623324086999"><ele>16.0</ele><time>2026-04-03T08:12:19.003Z</time></trkpt><trkpt lat="45.50493062887872" lon="11.916748411783876"><ele>15.999999999999998</ele><time>2026-04-03T08:12:20.003Z</time></trkpt><trkpt lat="45.504906456748145" lon="11.916870565862903"><ele>16.0</ele><time>2026-04-03T08:12:21Z</time></trkpt><trkpt lat="45.50488280807791" lon="11.91699576977079"><ele>16.0</ele><time>2026-04-03T08:12:22Z</time></trkpt><trkpt lat="45.50486533918801" lon="11.917106084589099"><ele>16.0</ele><time>2026-04-03T08:12:23Z</time></trkpt><trkpt lat="45.5048486005878" lon="11.91719281510185"><ele>15.999999999999998</ele><time>2026-04-03T08:12:24Z</time></trkpt><trkpt lat="45.50482623066307" lon="11.917282680106108"><ele>16.0</ele><time>2026-04-03T08:12:25Z</time></trkpt><trkpt lat="45.50478793598413" lon="11.917436470650808"><ele>15.999999999999998</ele><time>2026-04-03T08:12:27Z</time></trkpt><trkpt lat="45.50474077654796" lon="11.917538072773466"><ele>16.0</ele><time>2026-04-03T08:12:31Z</time></trkpt><trkpt lat="45.50483923428416" lon="11.917612459741168"><ele>16.0</ele><time>2026-04-03T08:12:33Z</time></trkpt><trkpt lat="45.50490471878632" lon="11.91763312550733"><ele>16.0</ele><time>2026-04-03T08:12:34Z</time></trkpt><trkpt lat="45.50497399243668" lon="11.91765423254667"><ele>15.999999999999998</ele><time>2026-04-03T08:12:35Z</time></trkpt><trkpt lat="45.50504589805942" lon="11.91767849458574"><ele>16.0</ele><time>2026-04-03T08:12:36Z</time></trkpt><trkpt lat="45.505117926662514" lon="11.917699208876185"><ele>15.600000000000001</ele><time>2026-04-03T08:12:37Z</time></trkpt><trkpt lat="45.50520010054402" lon="11.917725501882554"><ele>15.200000000000001</ele><time>2026-04-03T08:12:38Z</time></trkpt><trkpt lat="45.50528580158931" lon="11.917760328505475"><ele>14.799999999999999</ele><time>2026-04-03T08:12:39Z</time></trkpt><trkpt lat="45.50538281901179" lon="11.91779099768933"><ele>14.399999999999999</ele><time>2026-04-03T08:12:40Z</time></trkpt><trkpt lat="45.50548389657794" lon="11.917817092155307"><ele>14.0</ele><time>2026-04-03T08:12:41Z</time></trkpt><trkpt lat="45.505574841524755" lon="11.917856575153058"><ele>14.0</ele><time>2026-04-03T08:12:42Z</time></trkpt><trkpt lat="45.50567760582797" lon="11.917887900903343"><ele>13.999999999999998</ele><time>2026-04-03T08:12:43Z</time></trkpt><trkpt lat="45.505786597554085" lon="11.91791630193218"><ele>13.999999999999998</ele><time>2026-04-03T08:12:44Z</time></trkpt><trkpt lat="45.50589302368095" lon="11.917953697108366"><ele>14.0</ele><time>2026-04-03T08:12:45Z</time></trkpt><trkpt lat="45.50600510171318" lon="11.917995554149861"><ele>14.0</ele><time>2026-04-03T08:12:46Z</time></trkpt><trkpt lat="45.50611866765038" lon="11.918036978682643"><ele>14.0</ele><time>2026-04-03T08:12:47Z</time></trkpt><trkpt lat="45.506233733076655" lon="11.91808308522434"><ele>14.0</ele><time>2026-04-03T08:12:48.001Z</time></trkpt><trkpt lat="45.506351991877594" lon="11.918129444237232"><ele>14.0</ele><time>2026-04-03T08:12:49.001Z</time></trkpt><trkpt lat="45.506478379930414" lon="11.918175741195402"><ele>14.0</ele><time>2026-04-03T08:12:50.001Z</time></trkpt><trkpt lat="45.506596919948926" lon="11.918227385532681"><ele>14.25</ele><time>2026-04-03T08:12:51.001Z</time></trkpt><trkpt lat="45.50671929518598" lon="11.918268972166658"><ele>14.5</ele><time>2026-04-03T08:12:52.001Z</time></trkpt><trkpt lat="45.50684109423649" lon="11.918318448177263"><ele>14.75</ele><time>2026-04-03T08:12:53.001Z</time></trkpt><trkpt lat="45.50696401655835" lon="11.918356193775718"><ele>15.0</ele><time>2026-04-03T08:12:54.001Z</time></trkpt><trkpt lat="45.507091129219546" lon="11.9184028067888"><ele>14.0</ele><time>2026-04-03T08:12:55.001Z</time></trkpt><trkpt lat="45.507218997277434" lon="11.918438560891712"><ele>13.0</ele><time>2026-04-03T08:12:56.001Z</time></trkpt><trkpt lat="45.50735065250697" lon="11.918490934393558"><ele>12.0</ele><time>2026-04-03T08:12:57.001Z</time></trkpt><trkpt lat="45.50748294762685" lon="11.918542673161957"><ele>11.0</ele><time>2026-04-03T08:12:58.001Z</time></trkpt><trkpt lat="45.507618084495356" lon="11.91859059524117"><ele>11.0</ele><time>2026-04-03T08:12:59.001Z</time></trkpt><trkpt lat="45.50775022130642" lon="11.91863636976457"><ele>11.0</ele><time>2026-04-03T08:13:00.001Z</time></trkpt><trkpt lat="45.50789230224573" lon="11.918682276646637"><ele>11.0</ele><time>2026-04-03T08:13:01.001Z</time></trkpt><trkpt lat="45.508024367465254" lon="11.918736643893872"><ele>11.0</ele><time>2026-04-03T08:13:02.001Z</time></trkpt><trkpt lat="45.508158107366796" lon="11.918789533213005"><ele>11.75</ele><time>2026-04-03T08:13:03.001Z</time></trkpt><trkpt lat="45.50829396657636" lon="11.918840469449421"><ele>12.5</ele><time>2026-04-03T08:13:04.001Z</time></trkpt><trkpt lat="45.50843081408801" lon="11.918892964630697"><ele>13.25</ele><time>2026-04-03T08:13:05.001Z</time></trkpt><trkpt lat="45.50856747693858" lon="11.918947048084117"><ele>14.0</ele><time>2026-04-03T08:13:06.001Z</time></trkpt><trkpt lat="45.50870069248739" lon="11.91899786010047"><ele>14.0</ele><time>2026-04-03T08:13:07.001Z</time></trkpt><trkpt lat="45.50884375046662" lon="11.919046082036958"><ele>14.0</ele><time>2026-04-03T08:13:08.001Z</time></trkpt><trkpt lat="45.5089769998632" lon="11.919085485201673"><ele>14.0</ele><time>2026-04-03T08:13:09.001Z</time></trkpt><trkpt lat="45.50911753849175" lon="11.919143616988872"><ele>14.0</ele><time>2026-04-03T08:13:10.001Z</time></trkpt><trkpt lat="45.509254965009525" lon="11.919197739415187"><ele>14.0</ele><time>2026-04-03T08:13:11.001Z</time></trkpt><trkpt lat="45.50939540170926" lon="11.919251245799522"><ele>14.0</ele><time>2026-04-03T08:13:12.001Z</time></trkpt><trkpt lat="45.50953041215159" lon="11.919308196367211"><ele>14.0</ele><time>2026-04-03T08:13:13.001Z</time></trkpt><trkpt lat="45.50967090795808" lon="11.919360453268824"><ele>14.0</ele><time>2026-04-03T08:13:14.001Z</time></trkpt><trkpt lat="45.509797808457144" lon="11.919417031785786"><ele>14.0</ele><time>2026-04-03T08:13:15.001Z</time></trkpt><trkpt lat="45.509939294176384" lon="11.91946520725693"><ele>14.0</ele><time>2026-04-03T08:13:16.001Z</time></trkpt><trkpt lat="45.51007669199876" lon="11.919526938229675"><ele>14.0</ele><time>2026-04-03T08:13:17.001Z</time></trkpt><trkpt lat="45.510211251097694" lon="11.919583138089955"><ele>14.0</ele><time>2026-04-03T08:13:18.001Z</time></trkpt><trkpt lat="45.510353079311976" lon="11.919630980719758"><ele>14.5</ele><time>2026-04-03T08:13:19.001Z</time></trkpt><trkpt lat="45.51048855152129" lon="11.919689637513825"><ele>15.0</ele><time>2026-04-03T08:13:20.001Z</time></trkpt><trkpt lat="45.51062433888134" lon="11.919736138292608"><ele>15.5</ele><time>2026-04-03T08:13:21.001Z</time></trkpt><trkpt lat="45.51077452970571" lon="11.919772479127811"><ele>16.0</ele><time>2026-04-03T08:13:22.001Z</time></trkpt><trkpt lat="45.51090611807915" lon="11.91983436214277"><ele>16.0</ele><time>2026-04-03T08:13:23.001Z</time></trkpt><trkpt lat="45.51104014342493" lon="11.919890177689123"><ele>16.0</ele><time>2026-04-03T08:13:24.001Z</time></trkpt><trkpt lat="45.511177315741065" lon="11.919942368473432"><ele>16.0</ele><time>2026-04-03T08:13:25.001Z</time></trkpt><trkpt lat="45.51131729692055" lon="11.919994033872692"><ele>16.0</ele><time>2026-04-03T08:13:26.001Z</time></trkpt><trkpt lat="45.51145164998975" lon="11.92004968189273"><ele>16.0</ele><time>2026-04-03T08:13:27.001Z</time></trkpt><trkpt lat="45.5115710775166" lon="11.920084144820569"><ele>16.0</ele><time>2026-04-03T08:13:28.001Z</time></trkpt><trkpt lat="45.51167932920471" lon="11.920124642414295"><ele>16.0</ele><time>2026-04-03T08:13:29.001Z</time></trkpt><trkpt lat="45.511775449069724" lon="11.920165655695309"><ele>16.0</ele><time>2026-04-03T08:13:30.001Z</time></trkpt><trkpt lat="45.51186335565376" lon="11.920202030652337"><ele>16.0</ele><time>2026-04-03T08:13:31.001Z</time></trkpt><trkpt lat="45.51194772623526" lon="11.92023261015252"><ele>15.999999999999998</ele><time>2026-04-03T08:13:32.002Z</time></trkpt><trkpt lat="45.5120221914486" lon="11.920253408186657"><ele>16.0</ele><time>2026-04-03T08:13:33.002Z</time></trkpt><trkpt lat="45.51213871942119" lon="11.920290247275044"><ele>16.0</ele><time>2026-04-03T08:13:35.002Z</time></trkpt><trkpt lat="45.512221943343874" lon="11.920322012041343"><ele>16.0</ele><time>2026-04-03T08:13:37.002Z</time></trkpt><trkpt lat="45.512293435298325" lon="11.920336113038651"><ele>15.999999999999998</ele><time>2026-04-03T08:13:39.002Z</time></trkpt><trkpt lat="45.512351840594995" lon="11.9203738487911"><ele>16.0</ele><time>2026-04-03T08:13:54.002Z</time></trkpt><trkpt lat="45.51242239442759" lon="11.920419596823265"><ele>15.999999999999998</ele><time>2026-04-03T08:13:56.002Z</time></trkpt><trkpt lat="45.51249110781296" lon="11.920471145480674"><ele>16.0</ele><time>2026-04-03T08:13:58.002Z</time></trkpt><trkpt lat="45.51247211140166" lon="11.92062269275886"><ele>16.0</ele><time>2026-04-03T08:13:59.002Z</time></trkpt><trkpt lat="45.51245189619948" lon="11.920718512116585"><ele>16.0</ele><time>2026-04-03T08:14:00.002Z</time></trkpt><trkpt lat="45.51242892349018" lon="11.920822626278174"><ele>15.999999999999998</ele><time>2026-04-03T08:14:01.002Z</time></trkpt><trkpt lat="45.51240493256585" lon="11.920936730895624"><ele>16.0</ele><time>2026-04-03T08:14:02.002Z</time></trkpt><trkpt lat="45.51238359568996" lon="11.921056332562285"><ele>16.0</ele><time>2026-04-03T08:14:03.002Z</time></trkpt><trkpt lat="45.51235342215285" lon="11.921172668105038"><ele>16.0</ele><time>2026-04-03T08:14:04.002Z</time></trkpt><trkpt lat="45.51233289214025" lon="11.9213157588888"><ele>16.0</ele><time>2026-04-03T08:14:05.002Z</time></trkpt><trkpt lat="45.51230846128782" lon="11.921461609053443"><ele>16.0</ele><time>2026-04-03T08:14:06.002Z</time></trkpt><trkpt lat="45.51227690363029" lon="11.921619918449185"><ele>16.0</ele><time>2026-04-03T08:14:07.002Z</time></trkpt><trkpt lat="45.51225070212024" lon="11.921792491539897"><ele>16.0</ele><time>2026-04-03T08:14:08.002Z</time></trkpt><trkpt lat="45.512220675964784" lon="11.921965658213756"><ele>16.0</ele><time>2026-04-03T08:14:09.002Z</time></trkpt><trkpt lat="45.51218591277243" lon="11.92214677049345"><ele>16.0</ele><time>2026-04-03T08:14:10.002Z</time></trkpt><trkpt lat="45.512143783786556" lon="11.922333175335748"><ele>16.0</ele><time>2026-04-03T08:14:11.002Z</time></trkpt><trkpt lat="45.51210511356992" lon="11.922532520718871"><ele>15.666666666666666</ele><time>2026-04-03T08:14:12.002Z</time></trkpt><trkpt lat="45.51207262237922" lon="11.92273617809074"><ele>15.333333333333332</ele><time>2026-04-03T08:14:13.002Z</time></trkpt><trkpt lat="45.512030892472524" lon="11.922955305927582"><ele>15.0</ele><time>2026-04-03T08:14:14.003Z</time></trkpt><trkpt lat="45.51199743523347" lon="11.923167672335236"><ele>15.0</ele><time>2026-04-03T08:14:15.003Z</time></trkpt><trkpt lat="45.51195878589705" lon="11.923388466652922"><ele>15.0</ele><time>2026-04-03T08:14:16.003Z</time></trkpt><trkpt lat="45.51192550719958" lon="11.923618373225679"><ele>15.0</ele><time>2026-04-03T08:14:17.003Z</time></trkpt><trkpt lat="45.5118913416723" lon="11.923852315876239"><ele>14.666666666666668</ele><time>2026-04-03T08:14:18.003Z</time></trkpt><trkpt lat="45.511852077255284" lon="11.924086496147773"><ele>14.333333333333334</ele><time>2026-04-03T08:14:19.003Z</time></trkpt><trkpt lat="45.5117982268621" lon="11.924324707378826"><ele>14.0</ele><time>2026-04-03T08:14:20.003Z</time></trkpt><trkpt lat="45.51174628198113" lon="11.924569729782265"><ele>14.0</ele><time>2026-04-03T08:14:21.003Z</time></trkpt><trkpt lat="45.511697480061876" lon="11.92481761087618"><ele>14.0</ele><time>2026-04-03T08:14:22.003Z</time></trkpt><trkpt lat="45.511655013265845" lon="11.925067196483306"><ele>14.0</ele><time>2026-04-03T08:14:23.003Z</time></trkpt><trkpt lat="45.51161171349405" lon="11.925321383024965"><ele>14.333333333333334</ele><time>2026-04-03T08:14:24.003Z</time></trkpt><trkpt lat="45.51157254400591" lon="11.92558170542209"><ele>14.666666666666668</ele><time>2026-04-03T08:14:25.003Z</time></trkpt><trkpt lat="45.51152914140743" lon="11.925840711025971"><ele>15.0</ele><time>2026-04-03T08:14:26.003Z</time></trkpt><trkpt lat="45.51147089491078" lon="11.926094363014485"><ele>15.0</ele><time>2026-04-03T08:14:27.001Z</time></trkpt><trkpt lat="45.511424225445566" lon="11.926355090768867"><ele>15.0</ele><time>2026-04-03T08:14:28.001Z</time></trkpt><trkpt lat="45.51137963493801" lon="11.926611422857038"><ele>15.0</ele><time>2026-04-03T08:14:29.001Z</time></trkpt><trkpt lat="45.51133626625367" lon="11.926876291458992"><ele>15.0</ele><time>2026-04-03T08:14:30.001Z</time></trkpt><trkpt lat="45.51128978606693" lon="11.927135920962021"><ele>15.0</ele><time>2026-04-03T08:14:31.001Z</time></trkpt><trkpt lat="45.511245835649085" lon="11.927369057484425"><ele>15.0</ele><time>2026-04-03T08:14:32.001Z</time></trkpt><trkpt lat="45.51120896638888" lon="11.927587673247393"><ele>15.0</ele><time>2026-04-03T08:14:33.001Z</time></trkpt><trkpt lat="45.5111742818476" lon="11.927786005491233"><ele>15.0</ele><time>2026-04-03T08:14:34.001Z</time></trkpt><trkpt lat="45.51114140142731" lon="11.927979090690274"><ele>15.0</ele><time>2026-04-03T08:14:35.001Z</time></trkpt><trkpt lat="45.51110936856188" lon="11.928152042249245"><ele>15.0</ele><time>2026-04-03T08:14:36.001Z</time></trkpt><trkpt lat="45.51107921788486" lon="11.928315582039541"><ele>15.2</ele><time>2026-04-03T08:14:37.001Z</time></trkpt><trkpt lat="45.511051500916025" lon="11.928468841694693"><ele>15.4</ele><time>2026-04-03T08:14:38.001Z</time></trkpt><trkpt lat="45.51102464278179" lon="11.928613218178027"><ele>15.600000000000001</ele><time>2026-04-03T08:14:39.001Z</time></trkpt><trkpt lat="45.51100197278014" lon="11.928749220432497"><ele>15.8</ele><time>2026-04-03T08:14:40.001Z</time></trkpt><trkpt lat="45.51098254475252" lon="11.92886425333653"><ele>16.0</ele><time>2026-04-03T08:14:41.001Z</time></trkpt><trkpt lat="45.510965831971674" lon="11.928968737359586"><ele>15.999999999999998</ele><time>2026-04-03T08:14:42.001Z</time></trkpt><trkpt lat="45.510947215172855" lon="11.929080865452752"><ele>16.0</ele><time>2026-04-03T08:14:43.001Z</time></trkpt><trkpt lat="45.5109231926896" lon="11.929170193713718"><ele>16.0</ele><time>2026-04-03T08:14:44.001Z</time></trkpt><trkpt lat="45.510901574632285" lon="11.929259007161408"><ele>16.0</ele><time>2026-04-03T08:14:45.001Z</time></trkpt><trkpt lat="45.51088468061761" lon="11.929350304816605"><ele>15.999999999999998</ele><time>2026-04-03T08:14:47.001Z</time></trkpt><trkpt lat="45.51104543531205" lon="11.929334198037013"><ele>16.0</ele><time>2026-04-03T08:14:48.001Z</time></trkpt><trkpt lat="45.511112887035644" lon="11.929359886693724"><ele>15.8</ele><time>2026-04-03T08:14:49.001Z</time></trkpt><trkpt lat="45.51119356839554" lon="11.929391526660815"><ele>15.600000000000001</ele><time>2026-04-03T08:14:50.001Z</time></trkpt><trkpt lat="45.511282486007964" lon="11.929441993994281"><ele>15.4</ele><time>2026-04-03T08:14:51.001Z</time></trkpt><trkpt lat="45.51140562569215" lon="11.929482957443469"><ele>15.2</ele><time>2026-04-03T08:14:52.001Z</time></trkpt><trkpt lat="45.51151067513853" lon="11.929520924644752"><ele>15.0</ele><time>2026-04-03T08:14:53.001Z</time></trkpt><trkpt lat="45.51162573462719" lon="11.929556976957542"><ele>15.25</ele><time>2026-04-03T08:14:54.001Z</time></trkpt><trkpt lat="45.511745998477465" lon="11.929591929103172"><ele>15.5</ele><time>2026-04-03T08:14:55.001Z</time></trkpt><trkpt lat="45.51187151721164" lon="11.929631969570694"><ele>15.75</ele><time>2026-04-03T08:14:56.001Z</time></trkpt><trkpt lat="45.51200036331958" lon="11.9296688052492"><ele>16.0</ele><time>2026-04-03T08:14:57.001Z</time></trkpt><trkpt lat="45.51213364019889" lon="11.929710309130655"><ele>16.0</ele><time>2026-04-03T08:14:58.001Z</time></trkpt><trkpt lat="45.512271056932704" lon="11.92974851131929"><ele>16.0</ele><time>2026-04-03T08:14:59.001Z</time></trkpt><trkpt lat="45.51241417350169" lon="11.9297925797513"><ele>16.0</ele><time>2026-04-03T08:15:00.001Z</time></trkpt><trkpt lat="45.51255537887136" lon="11.929828869757854"><ele>16.0</ele><time>2026-04-03T08:15:01.001Z</time></trkpt><trkpt lat="45.512678070238074" lon="11.929859462989697"><ele>16.0</ele><time>2026-04-03T08:15:02.001Z</time></trkpt><trkpt lat="45.512789326619355" lon="11.929891065246592"><ele>16.0</ele><time>2026-04-03T08:15:03.001Z</time></trkpt><trkpt lat="45.512890126527054" lon="11.929907779754691"><ele>16.0</ele><time>2026-04-03T08:15:04.001Z</time></trkpt><trkpt lat="45.51298638350883" lon="11.929937520869782"><ele>16.0</ele><time>2026-04-03T08:15:05.001Z</time></trkpt><trkpt lat="45.51306653984199" lon="11.929981893799667"><ele>16.0</ele><time>2026-04-03T08:15:06.001Z</time></trkpt><trkpt lat="45.51314883648956" lon="11.93003947143805"><ele>16.0</ele><time>2026-04-03T08:15:07.001Z</time></trkpt><trkpt lat="45.513255160831775" lon="11.93011371767988"><ele>16.0</ele><time>2026-04-03T08:15:08.001Z</time></trkpt><trkpt lat="45.513359430329565" lon="11.930157542045606"><ele>16.0</ele><time>2026-04-03T08:15:09.001Z</time></trkpt><trkpt lat="45.51347961611212" lon="11.9301958829918"><ele>16.0</ele><time>2026-04-03T08:15:10.001Z</time></trkpt><trkpt lat="45.51359534714704" lon="11.930235145273286"><ele>16.0</ele><time>2026-04-03T08:15:11.001Z</time></trkpt><trkpt lat="45.51369589857595" lon="11.930275364584215"><ele>16.0</ele><time>2026-04-03T08:15:12.001Z</time></trkpt><trkpt lat="45.51378692489429" lon="11.930303092735883"><ele>16.0</ele><time>2026-04-03T08:15:13.001Z</time></trkpt><trkpt lat="45.51386602335432" lon="11.930334979555122"><ele>16.0</ele><time>2026-04-03T08:15:14.001Z</time></trkpt><trkpt lat="45.513942049244555" lon="11.930374751604434"><ele>16.0</ele><time>2026-04-03T08:15:15.001Z</time></trkpt><trkpt lat="45.51402748963538" lon="11.930479073804694"><ele>15.714285714285714</ele><time>2026-04-03T08:15:17.001Z</time></trkpt><trkpt lat="45.514047503922455" lon="11.930564538997288"><ele>15.428571428571427</ele><time>2026-04-03T08:15:18.001Z</time></trkpt><trkpt lat="45.51407973087582" lon="11.930643041151331"><ele>15.142857142857142</ele><time>2026-04-03T08:15:19.001Z</time></trkpt><trkpt lat="45.51415770318968" lon="11.930716729353865"><ele>14.857142857142858</ele><time>2026-04-03T08:15:21.001Z</time></trkpt><trkpt lat="45.51423084933003" lon="11.93066249410497"><ele>14.571428571428571</ele><time>2026-04-03T08:15:22.001Z</time></trkpt><trkpt lat="45.51428874551819" lon="11.930610437302228"><ele>14.285714285714285</ele><time>2026-04-03T08:15:23.001Z</time></trkpt><trkpt lat="45.51434510494753" lon="11.930534295023488"><ele>14.0</ele><time>2026-04-03T08:15:24.001Z</time></trkpt><trkpt lat="45.51443406382557" lon="11.93054012240369"><ele>14.0</ele><time>2026-04-03T08:15:25.001Z</time></trkpt><trkpt lat="45.51452255338981" lon="11.930597447814229"><ele>13.999999999999998</ele><time>2026-04-03T08:15:26.001Z</time></trkpt><trkpt lat="45.51461381931456" lon="11.930630082257673"><ele>13.999999999999998</ele><time>2026-04-03T08:15:27.001Z</time></trkpt><trkpt lat="45.51471975965961" lon="11.930672169256011"><ele>14.0</ele><time>2026-04-03T08:15:28.001Z</time></trkpt><trkpt lat="45.514833233179296" lon="11.930708307529551"><ele>14.0</ele><time>2026-04-03T08:15:29.001Z</time></trkpt><trkpt lat="45.514949162698464" lon="11.930750308646594"><ele>14.25</ele><time>2026-04-03T08:15:30.001Z</time></trkpt><trkpt lat="45.51506921512221" lon="11.930808412632956"><ele>14.5</ele><time>2026-04-03T08:15:31.001Z</time></trkpt><trkpt lat="45.5151942951196" lon="11.930860967490275"><ele>14.75</ele><time>2026-04-03T08:15:32.001Z</time></trkpt><trkpt lat="45.5153270113807" lon="11.930907556475626"><ele>15.0</ele><time>2026-04-03T08:15:33.001Z</time></trkpt><trkpt lat="45.51546436466177" lon="11.9309648755885"><ele>15.0</ele><time>2026-04-03T08:15:34.001Z</time></trkpt><trkpt lat="45.51559381944889" lon="11.931011478503658"><ele>15.0</ele><time>2026-04-03T08:15:35.002Z</time></trkpt><trkpt lat="45.51573601623936" lon="11.931068020637008"><ele>15.0</ele><time>2026-04-03T08:15:36.002Z</time></trkpt><trkpt lat="45.515879541917144" lon="11.931124997230404"><ele>15.0</ele><time>2026-04-03T08:15:37.002Z</time></trkpt><trkpt lat="45.51602419639642" lon="11.93118792901461"><ele>15.0</ele><time>2026-04-03T08:15:38.002Z</time></trkpt><trkpt lat="45.516169214039984" lon="11.931239206726715"><ele>15.0</ele><time>2026-04-03T08:15:39.002Z</time></trkpt><trkpt lat="45.51630274110249" lon="11.931290296744576"><ele>15.0</ele><time>2026-04-03T08:15:40.002Z</time></trkpt><trkpt lat="45.51642816819094" lon="11.931339605796534"><ele>15.0</ele><time>2026-04-03T08:15:41.002Z</time></trkpt><trkpt lat="45.51655180771961" lon="11.931379661791883"><ele>15.0</ele><time>2026-04-03T08:15:42.002Z</time></trkpt><trkpt lat="45.51667288548328" lon="11.93142690804005"><ele>15.0</ele><time>2026-04-03T08:15:43.002Z</time></trkpt><trkpt lat="45.51678828926714" lon="11.931474295410556"><ele>15.0</ele><time>2026-04-03T08:15:44.002Z</time></trkpt><trkpt lat="45.51691209967875" lon="11.931524568383542"><ele>15.0</ele><time>2026-04-03T08:15:45.002Z</time></trkpt><trkpt lat="45.517036690321504" lon="11.93156847923253"><ele>15.0</ele><time>2026-04-03T08:15:46.002Z</time></trkpt><trkpt lat="45.51716603975362" lon="11.93161713476831"><ele>15.0</ele><time>2026-04-03T08:15:47.002Z</time></trkpt><trkpt lat="45.51729330894346" lon="11.931659006854359"><ele>15.0</ele><time>2026-04-03T08:15:48.002Z</time></trkpt><trkpt lat="45.51741953942086" lon="11.931735291183521"><ele>15.0</ele><time>2026-04-03T08:15:49.002Z</time></trkpt><trkpt lat="45.51755327734553" lon="11.931779717514123"><ele>15.0</ele><time>2026-04-03T08:15:50.002Z</time></trkpt><trkpt lat="45.51767500763123" lon="11.931839775798254"><ele>15.0</ele><time>2026-04-03T08:15:51.002Z</time></trkpt><trkpt lat="45.517793119505896" lon="11.931891118330302"><ele>15.0</ele><time>2026-04-03T08:15:52.002Z</time></trkpt><trkpt lat="45.51790095062845" lon="11.931928112872718"><ele>15.0</ele><time>2026-04-03T08:15:53.002Z</time></trkpt><trkpt lat="45.5180069424115" lon="11.931984298026569"><ele>15.0</ele><time>2026-04-03T08:15:54.002Z</time></trkpt><trkpt lat="45.51811999797892" lon="11.93203470598233"><ele>15.0</ele><time>2026-04-03T08:15:55.002Z</time></trkpt><trkpt lat="45.51823524221769" lon="11.932088758155803"><ele>15.0</ele><time>2026-04-03T08:15:56.002Z</time></trkpt><trkpt lat="45.51835448608602" lon="11.932130858779102"><ele>15.0</ele><time>2026-04-03T08:15:57.002Z</time></trkpt><trkpt lat="45.51846495934179" lon="11.932177822200163"><ele>15.0</ele><time>2026-04-03T08:15:58.002Z</time></trkpt><trkpt lat="45.518583420598056" lon="11.932225358114037"><ele>15.0</ele><time>2026-04-03T08:15:59.002Z</time></trkpt><trkpt lat="45.518702998322816" lon="11.932271773572213"><ele>15.0</ele><time>2026-04-03T08:16:00.002Z</time></trkpt><trkpt lat="45.51881528965247" lon="11.93232438103046"><ele>15.0</ele><time>2026-04-03T08:16:01.002Z</time></trkpt><trkpt lat="45.51892028667148" lon="11.932371386639733"><ele>15.0</ele><time>2026-04-03T08:16:02.002Z</time></trkpt><trkpt lat="45.51901166923941" lon="11.932414875389227"><ele>15.0</ele><time>2026-04-03T08:16:03.002Z</time></trkpt><trkpt lat="45.51909358738649" lon="11.932451057648247"><ele>15.0</ele><time>2026-04-03T08:16:04.002Z</time></trkpt><trkpt lat="45.51918081675703" lon="11.932489871405451"><ele>15.0</ele><time>2026-04-03T08:16:05.002Z</time></trkpt><trkpt lat="45.51928213272404" lon="11.932522144721352"><ele>15.0</ele><time>2026-04-03T08:16:06.002Z</time></trkpt><trkpt lat="45.51938263444639" lon="11.93255693243068"><ele>15.0</ele><time>2026-04-03T08:16:07.002Z</time></trkpt><trkpt lat="45.51949022487732" lon="11.932588513961878"><ele>15.0</ele><time>2026-04-03T08:16:08.002Z</time></trkpt><trkpt lat="45.51960417567057" lon="11.932620548144401"><ele>15.0</ele><time>2026-04-03T08:16:09.002Z</time></trkpt><trkpt lat="45.51972875296034" lon="11.932653796265189"><ele>15.0</ele><time>2026-04-03T08:16:10.002Z</time></trkpt><trkpt lat="45.519857958075825" lon="11.932688263631439"><ele>15.0</ele><time>2026-04-03T08:16:11.002Z</time></trkpt><trkpt lat="45.519992523979106" lon="11.932726998024885"><ele>15.0</ele><time>2026-04-03T08:16:12.002Z</time></trkpt><trkpt lat="45.52013025429273" lon="11.932766627212061"><ele>15.0</ele><time>2026-04-03T08:16:13.002Z</time></trkpt><trkpt lat="45.52027261740741" lon="11.932806223588733"><ele>15.0</ele><time>2026-04-03T08:16:14.002Z</time></trkpt><trkpt lat="45.52042506323731" lon="11.93285308872972"><ele>14.666666666666668</ele><time>2026-04-03T08:16:15.002Z</time></trkpt><trkpt lat="45.52057478186052" lon="11.932901756103115"><ele>14.333333333333334</ele><time>2026-04-03T08:16:16.002Z</time></trkpt><trkpt lat="45.52073671963648" lon="11.932946365585316"><ele>14.0</ele><time>2026-04-03T08:16:17.002Z</time></trkpt><trkpt lat="45.5209104053944" lon="11.93300095331119"><ele>14.0</ele><time>2026-04-03T08:16:18.002Z</time></trkpt><trkpt lat="45.52108354492167" lon="11.933057181705346"><ele>14.0</ele><time>2026-04-03T08:16:19.002Z</time></trkpt><trkpt lat="45.52124830825621" lon="11.933106888673361"><ele>14.0</ele><time>2026-04-03T08:16:20.002Z</time></trkpt><trkpt lat="45.52140322595325" lon="11.933150958729101"><ele>14.25</ele><time>2026-04-03T08:16:21.002Z</time></trkpt><trkpt lat="45.52154478627521" lon="11.93320153599525"><ele>14.5</ele><time>2026-04-03T08:16:22.002Z</time></trkpt><trkpt lat="45.52167625682133" lon="11.9332509336146"><ele>14.75</ele><time>2026-04-03T08:16:23.003Z</time></trkpt><trkpt lat="45.52179144852246" lon="11.933291148528378"><ele>15.0</ele><time>2026-04-03T08:16:24.003Z</time></trkpt><trkpt lat="45.52188811969378" lon="11.933327704963624"><ele>15.0</ele><time>2026-04-03T08:16:25.003Z</time></trkpt><trkpt lat="45.521981581755284" lon="11.933361652244225"><ele>15.0</ele><time>2026-04-03T08:16:26.003Z</time></trkpt><trkpt lat="45.52206198750193" lon="11.933401056787957"><ele>15.0</ele><time>2026-04-03T08:16:27.003Z</time></trkpt><trkpt lat="45.52213442021669" lon="11.933419377552962"><ele>15.0</ele><time>2026-04-03T08:16:28.003Z</time></trkpt><trkpt lat="45.52225149629848" lon="11.933455672485662"><ele>15.0</ele><time>2026-04-03T08:16:30.003Z</time></trkpt><trkpt lat="45.52233980672343" lon="11.933465919947984"><ele>15.0</ele><time>2026-04-03T08:16:32.003Z</time></trkpt><trkpt lat="45.522231994090454" lon="11.933420593081955"><ele>15.0</ele><time>2026-04-03T08:16:57.001Z</time></trkpt><trkpt lat="45.52216701463909" lon="11.933394742771794"><ele>15.0</ele><time>2026-04-03T08:16:58.001Z</time></trkpt><trkpt lat="45.52209045267576" lon="11.933381802370269"><ele>15.0</ele><time>2026-04-03T08:16:59.001Z</time></trkpt><trkpt lat="45.52200454819127" lon="11.933343978336506"><ele>15.0</ele><time>2026-04-03T08:17:00.001Z</time></trkpt><trkpt lat="45.52190818904341" lon="11.933314233895437"><ele>15.0</ele><time>2026-04-03T08:17:01.001Z</time></trkpt><trkpt lat="45.52179391188371" lon="11.933269361617851"><ele>15.0</ele><time>2026-04-03T08:17:02.001Z</time></trkpt><trkpt lat="45.52168011212544" lon="11.933238056671433"><ele>15.0</ele><time>2026-04-03T08:17:03.001Z</time></trkpt><trkpt lat="45.52155256307467" lon="11.933193874371456"><ele>15.0</ele><time>2026-04-03T08:17:04.001Z</time></trkpt><trkpt lat="45.521416128426324" lon="11.93314857377647"><ele>15.0</ele><time>2026-04-03T08:17:05.001Z</time></trkpt><trkpt lat="45.521277940540905" lon="11.933092244730277"><ele>14.666666666666668</ele><time>2026-04-03T08:17:06.001Z</time></trkpt><trkpt lat="45.52113228465128" lon="11.933045089509543"><ele>14.333333333333334</ele><time>2026-04-03T08:17:07.001Z</time></trkpt><trkpt lat="45.52098027547746" lon="11.932999820546764"><ele>14.0</ele><time>2026-04-03T08:17:08.001Z</time></trkpt><trkpt lat="45.52082448754323" lon="11.932953061794692"><ele>14.0</ele><time>2026-04-03T08:17:09.001Z</time></trkpt><trkpt lat="45.52066306174224" lon="11.932909128210893"><ele>14.0</ele><time>2026-04-03T08:17:10.001Z</time></trkpt><trkpt lat="45.520500597929626" lon="11.932867173512427"><ele>14.0</ele><time>2026-04-03T08:17:11.001Z</time></trkpt><trkpt lat="45.52033546435057" lon="11.93281985452286"><ele>14.25</ele><time>2026-04-03T08:17:12.001Z</time></trkpt><trkpt lat="45.52018301359553" lon="11.932768105538214"><ele>14.5</ele><time>2026-04-03T08:17:13.001Z</time></trkpt><trkpt lat="45.520045175707054" lon="11.93272495256194"><ele>14.75</ele><time>2026-04-03T08:17:14.001Z</time></trkpt><trkpt lat="45.51991476339702" lon="11.932690641628563"><ele>15.0</ele><time>2026-04-03T08:17:15.001Z</time></trkpt><trkpt lat="45.51978927336295" lon="11.932653905042264"><ele>15.0</ele><time>2026-04-03T08:17:16.001Z</time></trkpt><trkpt lat="45.51966129705299" lon="11.932624774552886"><ele>15.0</ele><time>2026-04-03T08:17:17.001Z</time></trkpt><trkpt lat="45.51954123045122" lon="11.932566558146872"><ele>15.0</ele><time>2026-04-03T08:17:18.001Z</time></trkpt><trkpt lat="45.519435438141585" lon="11.932533282025666"><ele>15.0</ele><time>2026-04-03T08:17:19.001Z</time></trkpt><trkpt lat="45.51932453078576" lon="11.932494282763088"><ele>15.0</ele><time>2026-04-03T08:17:20.001Z</time></trkpt><trkpt lat="45.51922421297001" lon="11.932459007202459"><ele>15.0</ele><time>2026-04-03T08:17:21.001Z</time></trkpt><trkpt lat="45.51911926435314" lon="11.932422103749218"><ele>15.0</ele><time>2026-04-03T08:17:22.001Z</time></trkpt><trkpt lat="45.51901521330327" lon="11.932381302415083"><ele>15.0</ele><time>2026-04-03T08:17:23.001Z</time></trkpt><trkpt lat="45.51890841293086" lon="11.932333095286003"><ele>15.0</ele><time>2026-04-03T08:17:24.001Z</time></trkpt><trkpt lat="45.51879007201295" lon="11.932305660815437"><ele>15.0</ele><time>2026-04-03T08:17:25.001Z</time></trkpt><trkpt lat="45.51867524964603" lon="11.93223221352604"><ele>15.0</ele><time>2026-04-03T08:17:26.001Z</time></trkpt><trkpt lat="45.518556706990715" lon="11.932180338394476"><ele>15.0</ele><time>2026-04-03T08:17:27.001Z</time></trkpt><trkpt lat="45.5184317999896" lon="11.932124981542774"><ele>15.0</ele><time>2026-04-03T08:17:28.001Z</time></trkpt><trkpt lat="45.51830889377884" lon="11.932070511407682"><ele>15.0</ele><time>2026-04-03T08:17:29.001Z</time></trkpt><trkpt lat="45.51817582666187" lon="11.932024834560485"><ele>15.0</ele><time>2026-04-03T08:17:30.001Z</time></trkpt><trkpt lat="45.51806826346328" lon="11.931983388155334"><ele>15.0</ele><time>2026-04-03T08:17:31.001Z</time></trkpt><trkpt lat="45.517967410208094" lon="11.931944591247325"><ele>15.0</ele><time>2026-04-03T08:17:32.001Z</time></trkpt><trkpt lat="45.517869609064675" lon="11.931902286267185"><ele>15.0</ele><time>2026-04-03T08:17:33.001Z</time></trkpt><trkpt lat="45.51777440084553" lon="11.931862376558101"><ele>15.0</ele><time>2026-04-03T08:17:34.001Z</time></trkpt><trkpt lat="45.517674260523336" lon="11.931818399386811"><ele>15.0</ele><time>2026-04-03T08:17:35.001Z</time></trkpt><trkpt lat="45.51758056425328" lon="11.931756820364482"><ele>15.0</ele><time>2026-04-03T08:17:36.001Z</time></trkpt><trkpt lat="45.517481347734375" lon="11.931713165761474"><ele>15.0</ele><time>2026-04-03T08:17:37.001Z</time></trkpt><trkpt lat="45.51737794230288" lon="11.931667174888107"><ele>15.0</ele><time>2026-04-03T08:17:38.001Z</time></trkpt><trkpt lat="45.51727646224971" lon="11.931645494703163"><ele>15.0</ele><time>2026-04-03T08:17:39.001Z</time></trkpt><trkpt lat="45.51719236289131" lon="11.931598436231521"><ele>15.0</ele><time>2026-04-03T08:17:40.002Z</time></trkpt><trkpt lat="45.51711483502619" lon="11.931565762860163"><ele>15.0</ele><time>2026-04-03T08:17:41.002Z</time></trkpt><trkpt lat="45.5170206206953" lon="11.931525521623078"><ele>15.0</ele><time>2026-04-03T08:17:43.002Z</time></trkpt><trkpt lat="45.51695830760438" lon="11.931819529580304"><ele>15.2</ele><time>2026-04-03T08:17:46.002Z</time></trkpt><trkpt lat="45.51694068450966" lon="11.93192914075478"><ele>15.4</ele><time>2026-04-03T08:17:47.002Z</time></trkpt><trkpt lat="45.51693411887146" lon="11.93204905366926"><ele>15.600000000000001</ele><time>2026-04-03T08:17:48.002Z</time></trkpt><trkpt lat="45.51691941792232" lon="11.932179676952877"><ele>15.8</ele><time>2026-04-03T08:17:49.002Z</time></trkpt><trkpt lat="45.51690327667814" lon="11.93231562053507"><ele>16.0</ele><time>2026-04-03T08:17:50.002Z</time></trkpt><trkpt lat="45.51688709377403" lon="11.932461527601182"><ele>16.25</ele><time>2026-04-03T08:17:51.002Z</time></trkpt><trkpt lat="45.51686785303129" lon="11.932615084482919"><ele>16.5</ele><time>2026-04-03T08:17:52.002Z</time></trkpt><trkpt lat="45.516849256684516" lon="11.932806119462569"><ele>16.75</ele><time>2026-04-03T08:17:53.002Z</time></trkpt><trkpt lat="45.516818006863325" lon="11.933001233449001"><ele>17.0</ele><time>2026-04-03T08:17:54.002Z</time></trkpt><trkpt lat="45.51677479782151" lon="11.933211192569715"><ele>17.333333333333336</ele><time>2026-04-03T08:17:55.002Z</time></trkpt><trkpt lat="45.516740889125515" lon="11.933436214834279"><ele>17.666666666666668</ele><time>2026-04-03T08:17:56.002Z</time></trkpt><trkpt lat="45.516695093859255" lon="11.933670096156547"><ele>18.0</ele><time>2026-04-03T08:17:57.002Z</time></trkpt><trkpt lat="45.51664018568081" lon="11.933915198517644"><ele>18.0</ele><time>2026-04-03T08:17:58.002Z</time></trkpt><trkpt lat="45.51659773203785" lon="11.934164731262255"><ele>18.0</ele><time>2026-04-03T08:17:59.002Z</time></trkpt><trkpt lat="45.51653718410961" lon="11.934450048678912"><ele>18.0</ele><time>2026-04-03T08:18:00.002Z</time></trkpt><trkpt lat="45.51650442051819" lon="11.934695200972497"><ele>18.0</ele><time>2026-04-03T08:18:01.002Z</time></trkpt><trkpt lat="45.51644598847986" lon="11.934971322743271"><ele>18.0</ele><time>2026-04-03T08:18:02.002Z</time></trkpt><trkpt lat="45.516399462656956" lon="11.935244789519356"><ele>18.0</ele><time>2026-04-03T08:18:03.002Z</time></trkpt><trkpt lat="45.516344025026584" lon="11.935528090484166"><ele>17.333333333333332</ele><time>2026-04-03T08:18:04.002Z</time></trkpt><trkpt lat="45.516292434147765" lon="11.935812192301874"><ele>16.666666666666664</ele><time>2026-04-03T08:18:05.002Z</time></trkpt><trkpt lat="45.51623707059267" lon="11.936099322566658"><ele>16.0</ele><time>2026-04-03T08:18:06.002Z</time></trkpt><trkpt lat="45.516182412632844" lon="11.936398295354053"><ele>16.0</ele><time>2026-04-03T08:18:07.002Z</time></trkpt><trkpt lat="45.51611098754684" lon="11.936685393927903"><ele>16.0</ele><time>2026-04-03T08:18:08.002Z</time></trkpt><trkpt lat="45.516058482122055" lon="11.93698662612327"><ele>16.0</ele><time>2026-04-03T08:18:09.002Z</time></trkpt><trkpt lat="45.51601366319581" lon="11.937300456389693"><ele>15.666666666666666</ele><time>2026-04-03T08:18:10.002Z</time></trkpt><trkpt lat="45.51596382445803" lon="11.937598016243207"><ele>15.333333333333332</ele><time>2026-04-03T08:18:11.002Z</time></trkpt><trkpt lat="45.515906601879074" lon="11.937901053921035"><ele>15.0</ele><time>2026-04-03T08:18:12.002Z</time></trkpt><trkpt lat="45.51584831161554" lon="11.938209996288228"><ele>14.666666666666668</ele><time>2026-04-03T08:18:13.002Z</time></trkpt><trkpt lat="45.51579240034862" lon="11.938514977360674"><ele>14.333333333333334</ele><time>2026-04-03T08:18:14.002Z</time></trkpt><trkpt lat="45.515731422490354" lon="11.938821418916703"><ele>14.0</ele><time>2026-04-03T08:18:15.002Z</time></trkpt><trkpt lat="45.51567380710106" lon="11.939131468339696"><ele>14.333333333333334</ele><time>2026-04-03T08:18:16.002Z</time></trkpt><trkpt lat="45.5156189320493" lon="11.939431454326746"><ele>14.666666666666668</ele><time>2026-04-03T08:18:17.002Z</time></trkpt><trkpt lat="45.51557231602654" lon="11.93970652169878"><ele>15.0</ele><time>2026-04-03T08:18:18.002Z</time></trkpt><trkpt lat="45.51552744977272" lon="11.93996208343845"><ele>15.0</ele><time>2026-04-03T08:18:19.002Z</time></trkpt><trkpt lat="45.515479223219074" lon="11.940211615078999"><ele>15.0</ele><time>2026-04-03T08:18:20.002Z</time></trkpt><trkpt lat="45.51543159011289" lon="11.94046485077582"><ele>15.0</ele><time>2026-04-03T08:18:21.002Z</time></trkpt><trkpt lat="45.515387034682256" lon="11.940715222583894"><ele>14.666666666666668</ele><time>2026-04-03T08:18:22.002Z</time></trkpt><trkpt lat="45.5153458325344" lon="11.940971938496656"><ele>14.333333333333334</ele><time>2026-04-03T08:18:23.002Z</time></trkpt><trkpt lat="45.51530570169792" lon="11.941217559226464"><ele>14.0</ele><time>2026-04-03T08:18:24.002Z</time></trkpt><trkpt lat="45.515265446947936" lon="11.941442307915858"><ele>14.0</ele><time>2026-04-03T08:18:25.002Z</time></trkpt><trkpt lat="45.515227679420654" lon="11.941657808386154"><ele>14.0</ele><time>2026-04-03T08:18:26.002Z</time></trkpt><trkpt lat="45.51518949871297" lon="11.941879820139508"><ele>14.0</ele><time>2026-04-03T08:18:27.002Z</time></trkpt><trkpt lat="45.515151770363566" lon="11.94210126245031"><ele>14.333333333333334</ele><time>2026-04-03T08:18:28.002Z</time></trkpt><trkpt lat="45.51511286268633" lon="11.9423221996115"><ele>14.666666666666668</ele><time>2026-04-03T08:18:29.002Z</time></trkpt><trkpt lat="45.515075047092054" lon="11.942545598582672"><ele>15.0</ele><time>2026-04-03T08:18:30.002Z</time></trkpt><trkpt lat="45.51504045069944" lon="11.942766776675574"><ele>15.0</ele><time>2026-04-03T08:18:31.002Z</time></trkpt><trkpt lat="45.51500432668813" lon="11.942993855535365"><ele>15.0</ele><time>2026-04-03T08:18:32.002Z</time></trkpt><trkpt lat="45.514964849283814" lon="11.94321558503876"><ele>15.0</ele><time>2026-04-03T08:18:33.002Z</time></trkpt><trkpt lat="45.51492609935095" lon="11.943439113159236"><ele>15.0</ele><time>2026-04-03T08:18:34.002Z</time></trkpt><trkpt lat="45.514890945079415" lon="11.94366538045105"><ele>15.0</ele><time>2026-04-03T08:18:35.002Z</time></trkpt><trkpt lat="45.5148589650093" lon="11.943894717113613"><ele>15.0</ele><time>2026-04-03T08:18:36.002Z</time></trkpt><trkpt lat="45.51482116877692" lon="11.944131797833558"><ele>15.0</ele><time>2026-04-03T08:18:37.002Z</time></trkpt><trkpt lat="45.514781925774166" lon="11.944376103152118"><ele>15.0</ele><time>2026-04-03T08:18:38.003Z</time></trkpt><trkpt lat="45.514745564108395" lon="11.944622264370173"><ele>15.0</ele><time>2026-04-03T08:18:39.001Z</time></trkpt><trkpt lat="45.51468709926424" lon="11.944866599914384"><ele>15.0</ele><time>2026-04-03T08:18:40.001Z</time></trkpt><trkpt lat="45.51464161428532" lon="11.945123571422213"><ele>15.0</ele><time>2026-04-03T08:18:41.001Z</time></trkpt><trkpt lat="45.51459872958331" lon="11.94537577792813"><ele>15.0</ele><time>2026-04-03T08:18:42.001Z</time></trkpt><trkpt lat="45.514560038730124" lon="11.945602600484282"><ele>14.666666666666668</ele><time>2026-04-03T08:18:43.001Z</time></trkpt><trkpt lat="45.514522931278655" lon="11.945812641424011"><ele>14.333333333333334</ele><time>2026-04-03T08:18:44.001Z</time></trkpt><trkpt lat="45.51448712438225" lon="11.946017856000639"><ele>14.0</ele><time>2026-04-03T08:18:45.001Z</time></trkpt><trkpt lat="45.51444631775144" lon="11.946242336366033"><ele>14.0</ele><time>2026-04-03T08:18:46.001Z</time></trkpt><trkpt lat="45.5144040104594" lon="11.946475071996572"><ele>14.0</ele><time>2026-04-03T08:18:47.001Z</time></trkpt><trkpt lat="45.51435957977703" lon="11.946719488661953"><ele>14.0</ele><time>2026-04-03T08:18:48.001Z</time></trkpt><trkpt lat="45.514315219635634" lon="11.94696351733684"><ele>14.0</ele><time>2026-04-03T08:18:49.001Z</time></trkpt><trkpt lat="45.51426841277703" lon="11.947221005501019"><ele>14.0</ele><time>2026-04-03T08:18:50.001Z</time></trkpt><trkpt lat="45.51422437933187" lon="11.947463237073613"><ele>14.0</ele><time>2026-04-03T08:18:51.001Z</time></trkpt><trkpt lat="45.51419783185992" lon="11.947680604069467"><ele>14.0</ele><time>2026-04-03T08:18:52.001Z</time></trkpt><trkpt lat="45.5141624541167" lon="11.947869112585407"><ele>14.0</ele><time>2026-04-03T08:18:53.001Z</time></trkpt><trkpt lat="45.51412570296015" lon="11.948056892528646"><ele>14.0</ele><time>2026-04-03T08:18:54.001Z</time></trkpt><trkpt lat="45.51407873676776" lon="11.948265128896566"><ele>14.0</ele><time>2026-04-03T08:18:55.001Z</time></trkpt><trkpt lat="45.51402927245281" lon="11.948489044452861"><ele>14.333333333333334</ele><time>2026-04-03T08:18:56.001Z</time></trkpt><trkpt lat="45.513975348907074" lon="11.948716464522818"><ele>14.666666666666668</ele><time>2026-04-03T08:18:57.001Z</time></trkpt><trkpt lat="45.51390712450877" lon="11.948935916444002"><ele>15.0</ele><time>2026-04-03T08:18:58.001Z</time></trkpt><trkpt lat="45.51386157455826" lon="11.949185828439079"><ele>14.333333333333332</ele><time>2026-04-03T08:18:59.001Z</time></trkpt><trkpt lat="45.513803005894665" lon="11.94942893379459"><ele>13.666666666666666</ele><time>2026-04-03T08:19:00.001Z</time></trkpt><trkpt lat="45.51374588758777" lon="11.949676829790874"><ele>13.0</ele><time>2026-04-03T08:19:01.001Z</time></trkpt><trkpt lat="45.513694017975034" lon="11.949928716277185"><ele>13.333333333333332</ele><time>2026-04-03T08:19:02.001Z</time></trkpt><trkpt lat="45.51364567747574" lon="11.950184804754974"><ele>13.666666666666668</ele><time>2026-04-03T08:19:03.001Z</time></trkpt><trkpt lat="45.51358064165374" lon="11.950439067724158"><ele>14.0</ele><time>2026-04-03T08:19:04.001Z</time></trkpt><trkpt lat="45.51354682841932" lon="11.950704764390986"><ele>14.0</ele><time>2026-04-03T08:19:05.001Z</time></trkpt><trkpt lat="45.51349907736011" lon="11.950970152857826"><ele>14.0</ele><time>2026-04-03T08:19:06.001Z</time></trkpt><trkpt lat="45.51343441000809" lon="11.951229152800707"><ele>14.0</ele><time>2026-04-03T08:19:07.001Z</time></trkpt><trkpt lat="45.51340489189502" lon="11.95148595134343"><ele>14.333333333333334</ele><time>2026-04-03T08:19:08.001Z</time></trkpt><trkpt lat="45.51336381583133" lon="11.95171526992346"><ele>14.666666666666668</ele><time>2026-04-03T08:19:09.001Z</time></trkpt><trkpt lat="45.51332501567269" lon="11.951930713222454"><ele>15.0</ele><time>2026-04-03T08:19:10.001Z</time></trkpt><trkpt lat="45.513288206941006" lon="11.952129226966607"><ele>15.0</ele><time>2026-04-03T08:19:11.001Z</time></trkpt><trkpt lat="45.51324951782087" lon="11.952333420374003"><ele>15.0</ele><time>2026-04-03T08:19:12.001Z</time></trkpt><trkpt lat="45.513213386260254" lon="11.952538886167567"><ele>15.0</ele><time>2026-04-03T08:19:13.001Z</time></trkpt><trkpt lat="45.513176166852176" lon="11.952744239135445"><ele>15.0</ele><time>2026-04-03T08:19:14.001Z</time></trkpt><trkpt lat="45.51314006414538" lon="11.952947036100193"><ele>14.75</ele><time>2026-04-03T08:19:15.001Z</time></trkpt><trkpt lat="45.51311079120937" lon="11.95315340035917"><ele>14.5</ele><time>2026-04-03T08:19:16.001Z</time></trkpt><trkpt lat="45.513074621492315" lon="11.953359464024501"><ele>14.25</ele><time>2026-04-03T08:19:17.001Z</time></trkpt><trkpt lat="45.51304080366538" lon="11.953561454316663"><ele>14.0</ele><time>2026-04-03T08:19:18.001Z</time></trkpt><trkpt lat="45.51300522754382" lon="11.953773442491157"><ele>14.0</ele><time>2026-04-03T08:19:19.001Z</time></trkpt><trkpt lat="45.51295157326162" lon="11.953983072892196"><ele>14.0</ele><time>2026-04-03T08:19:20.001Z</time></trkpt><trkpt lat="45.51292727556321" lon="11.954205254985506"><ele>14.0</ele><time>2026-04-03T08:19:21.001Z</time></trkpt><trkpt lat="45.51287286228801" lon="11.9544095374565"><ele>14.333333333333334</ele><time>2026-04-03T08:19:22.001Z</time></trkpt><trkpt lat="45.51283152057669" lon="11.954626627208835"><ele>14.666666666666668</ele><time>2026-04-03T08:19:23.001Z</time></trkpt><trkpt lat="45.51278969600787" lon="11.95484340674125"><ele>15.0</ele><time>2026-04-03T08:19:24.001Z</time></trkpt><trkpt lat="45.512748275561144" lon="11.955058024067561"><ele>15.333333333333332</ele><time>2026-04-03T08:19:25.001Z</time></trkpt><trkpt lat="45.51270700316317" lon="11.955271874295256"><ele>15.666666666666666</ele><time>2026-04-03T08:19:26.001Z</time></trkpt><trkpt lat="45.51266558130141" lon="11.955486498960884"><ele>16.0</ele><time>2026-04-03T08:19:27.001Z</time></trkpt><trkpt lat="45.512623573161875" lon="11.955704161523284"><ele>16.0</ele><time>2026-04-03T08:19:28.001Z</time></trkpt><trkpt lat="45.51258247420234" lon="11.955922268386784"><ele>16.0</ele><time>2026-04-03T08:19:29.001Z</time></trkpt><trkpt lat="45.51254092086413" lon="11.956143737331283"><ele>16.0</ele><time>2026-04-03T08:19:30.001Z</time></trkpt><trkpt lat="45.51250580813378" lon="11.956373118491534"><ele>16.0</ele><time>2026-04-03T08:19:31.001Z</time></trkpt><trkpt lat="45.512473860262716" lon="11.956580727656348"><ele>16.0</ele><time>2026-04-03T08:19:32.001Z</time></trkpt><trkpt lat="45.512439322913394" lon="11.956769417245992"><ele>16.0</ele><time>2026-04-03T08:19:33.001Z</time></trkpt><trkpt lat="45.51240582246533" lon="11.956937816673758"><ele>16.0</ele><time>2026-04-03T08:19:34.001Z</time></trkpt><trkpt lat="45.51237539394284" lon="11.95709602743961"><ele>16.0</ele><time>2026-04-03T08:19:35.001Z</time></trkpt><trkpt lat="45.51234823866759" lon="11.95724368580604"><ele>16.0</ele><time>2026-04-03T08:19:36.001Z</time></trkpt><trkpt lat="45.51230607389827" lon="11.957376347398512"><ele>16.0</ele><time>2026-04-03T08:19:37.001Z</time></trkpt><trkpt lat="45.51227926317602" lon="11.957510254702642"><ele>16.0</ele><time>2026-04-03T08:19:38.001Z</time></trkpt><trkpt lat="45.512256538864406" lon="11.95762497404749"><ele>16.0</ele><time>2026-04-03T08:19:39.001Z</time></trkpt><trkpt lat="45.512227191763635" lon="11.957779479942804"><ele>15.4</ele><time>2026-04-03T08:19:41.001Z</time></trkpt><trkpt lat="45.512219103441424" lon="11.957876666238223"><ele>14.8</ele><time>2026-04-03T08:19:43.001Z</time></trkpt><trkpt lat="45.51237092885079" lon="11.957936646384729"><ele>14.200000000000001</ele><time>2026-04-03T08:19:44.001Z</time></trkpt><trkpt lat="45.51245719778058" lon="11.95795376871824"><ele>13.600000000000001</ele><time>2026-04-03T08:19:45.001Z</time></trkpt><trkpt lat="45.51255333587494" lon="11.9579805253254"><ele>13.0</ele><time>2026-04-03T08:19:46.001Z</time></trkpt><trkpt lat="45.51266157251359" lon="11.95801834037371"><ele>13.0</ele><time>2026-04-03T08:19:47.001Z</time></trkpt><trkpt lat="45.51279056026351" lon="11.958062563090929"><ele>13.0</ele><time>2026-04-03T08:19:48.001Z</time></trkpt><trkpt lat="45.51292060905058" lon="11.958109339936627"><ele>13.0</ele><time>2026-04-03T08:19:49.001Z</time></trkpt><trkpt lat="45.51307077414668" lon="11.958153201172445"><ele>13.0</ele><time>2026-04-03T08:19:50.001Z</time></trkpt><trkpt lat="45.513228273712905" lon="11.95821218296168"><ele>13.0</ele><time>2026-04-03T08:19:51.001Z</time></trkpt><trkpt lat="45.513385705821186" lon="11.958271473062355"><ele>13.0</ele><time>2026-04-03T08:19:52.001Z</time></trkpt><trkpt lat="45.513553051475725" lon="11.958341830420219"><ele>13.0</ele><time>2026-04-03T08:19:53.001Z</time></trkpt><trkpt lat="45.51373231577404" lon="11.958406458896945"><ele>13.333333333333332</ele><time>2026-04-03T08:19:54.001Z</time></trkpt><trkpt lat="45.51391776436108" lon="11.958474952080737"><ele>13.666666666666668</ele><time>2026-04-03T08:19:55.001Z</time></trkpt><trkpt lat="45.51410843230448" lon="11.958547271664706"><ele>14.0</ele><time>2026-04-03T08:19:56.001Z</time></trkpt><trkpt lat="45.514299358946346" lon="11.958613925605627"><ele>14.0</ele><time>2026-04-03T08:19:57.001Z</time></trkpt><trkpt lat="45.51449523460062" lon="11.95868705199186"><ele>14.0</ele><time>2026-04-03T08:19:58.002Z</time></trkpt><trkpt lat="45.514689926579784" lon="11.95876553757558"><ele>14.0</ele><time>2026-04-03T08:19:59.002Z</time></trkpt><trkpt lat="45.51488425007145" lon="11.95884928519509"><ele>14.0</ele><time>2026-04-03T08:20:00.002Z</time></trkpt><trkpt lat="45.515102858215634" lon="11.958921738091188"><ele>14.0</ele><time>2026-04-03T08:20:01.002Z</time></trkpt><trkpt lat="45.515313613944016" lon="11.958995278963716"><ele>14.0</ele><time>2026-04-03T08:20:02.002Z</time></trkpt><trkpt lat="45.5155238366034" lon="11.959074514385406"><ele>14.0</ele><time>2026-04-03T08:20:03.002Z</time></trkpt><trkpt lat="45.51574128471008" lon="11.959157655521889"><ele>14.0</ele><time>2026-04-03T08:20:04.002Z</time></trkpt><trkpt lat="45.515956807637956" lon="11.959236048688469"><ele>14.0</ele><time>2026-04-03T08:20:05.002Z</time></trkpt><trkpt lat="45.516174584924364" lon="11.959319086683802"><ele>13.5</ele><time>2026-04-03T08:20:06.002Z</time></trkpt><trkpt lat="45.51639847220846" lon="11.959397026603083"><ele>13.0</ele><time>2026-04-03T08:20:07.002Z</time></trkpt><trkpt lat="45.51662104959809" lon="11.959484327600666"><ele>13.0</ele><time>2026-04-03T08:20:08.002Z</time></trkpt><trkpt lat="45.51684684732108" lon="11.959570013230442"><ele>13.0</ele><time>2026-04-03T08:20:09.002Z</time></trkpt><trkpt lat="45.51707263244782" lon="11.959652327792888"><ele>14.5</ele><time>2026-04-03T08:20:10.002Z</time></trkpt><trkpt lat="45.51730037492708" lon="11.959733388648509"><ele>16.0</ele><time>2026-04-03T08:20:11.002Z</time></trkpt><trkpt lat="45.51752881070681" lon="11.959815926174219"><ele>16.0</ele><time>2026-04-03T08:20:12.002Z</time></trkpt><trkpt lat="45.517757480374" lon="11.959898692237699"><ele>16.0</ele><time>2026-04-03T08:20:13.002Z</time></trkpt><trkpt lat="45.517976502424276" lon="11.959963797007347"><ele>16.0</ele><time>2026-04-03T08:20:14.002Z</time></trkpt><trkpt lat="45.518165804175744" lon="11.960046784101673"><ele>16.0</ele><time>2026-04-03T08:20:15.002Z</time></trkpt><trkpt lat="45.5183544223277" lon="11.960127604340418"><ele>16.0</ele><time>2026-04-03T08:20:16.002Z</time></trkpt><trkpt lat="45.51854137755719" lon="11.96019795930526"><ele>16.0</ele><time>2026-04-03T08:20:17.002Z</time></trkpt><trkpt lat="45.5187281769454" lon="11.960268213060045"><ele>16.0</ele><time>2026-04-03T08:20:18.002Z</time></trkpt><trkpt lat="45.51891088596081" lon="11.96033358130414"><ele>16.0</ele><time>2026-04-03T08:20:19.002Z</time></trkpt><trkpt lat="45.51909069086887" lon="11.96039924933912"><ele>16.0</ele><time>2026-04-03T08:20:20.002Z</time></trkpt><trkpt lat="45.51927112758729" lon="11.96046352775934"><ele>16.0</ele><time>2026-04-03T08:20:21.002Z</time></trkpt><trkpt lat="45.51944894103236" lon="11.96052475050035"><ele>16.0</ele><time>2026-04-03T08:20:22.002Z</time></trkpt><trkpt lat="45.519621372915594" lon="11.960590395237933"><ele>15.666666666666666</ele><time>2026-04-03T08:20:23.002Z</time></trkpt><trkpt lat="45.51979299160458" lon="11.96065263715306"><ele>15.333333333333332</ele><time>2026-04-03T08:20:24.002Z</time></trkpt><trkpt lat="45.51996562850832" lon="11.96071487785903"><ele>15.0</ele><time>2026-04-03T08:20:25.002Z</time></trkpt><trkpt lat="45.52014470062705" lon="11.960776653039941"><ele>15.0</ele><time>2026-04-03T08:20:26.002Z</time></trkpt><trkpt lat="45.52032274860711" lon="11.960843985007317"><ele>15.0</ele><time>2026-04-03T08:20:27.002Z</time></trkpt><trkpt lat="45.52050033124236" lon="11.960908246410188"><ele>15.0</ele><time>2026-04-03T08:20:28.002Z</time></trkpt><trkpt lat="45.52067373364212" lon="11.960970296985243"><ele>15.333333333333332</ele><time>2026-04-03T08:20:29.002Z</time></trkpt><trkpt lat="45.52084249213751" lon="11.961024738622138"><ele>15.666666666666666</ele><time>2026-04-03T08:20:30.002Z</time></trkpt><trkpt lat="45.52102173131754" lon="11.961097349121792"><ele>16.0</ele><time>2026-04-03T08:20:31.002Z</time></trkpt><trkpt lat="45.52120487273312" lon="11.961162491896134"><ele>16.0</ele><time>2026-04-03T08:20:32.002Z</time></trkpt><trkpt lat="45.521388044946164" lon="11.961229504120977"><ele>16.0</ele><time>2026-04-03T08:20:33.002Z</time></trkpt><trkpt lat="45.52156988276449" lon="11.961297463445355"><ele>16.0</ele><time>2026-04-03T08:20:34.002Z</time></trkpt><trkpt lat="45.521750497621255" lon="11.961371090925127"><ele>16.0</ele><time>2026-04-03T08:20:35.002Z</time></trkpt><trkpt lat="45.52193520386898" lon="11.961435595040724"><ele>16.0</ele><time>2026-04-03T08:20:36.002Z</time></trkpt><trkpt lat="45.522111782408835" lon="11.961503397753182"><ele>16.0</ele><time>2026-04-03T08:20:37.002Z</time></trkpt><trkpt lat="45.52229548963868" lon="11.961560557801153"><ele>15.333333333333332</ele><time>2026-04-03T08:20:38.002Z</time></trkpt><trkpt lat="45.52246189611075" lon="11.961607032618886"><ele>14.666666666666668</ele><time>2026-04-03T08:20:39.002Z</time></trkpt><trkpt lat="45.52262934781805" lon="11.961654912142118"><ele>14.0</ele><time>2026-04-03T08:20:40.002Z</time></trkpt><trkpt lat="45.52278965840354" lon="11.96173633703469"><ele>14.333333333333334</ele><time>2026-04-03T08:20:41.002Z</time></trkpt><trkpt lat="45.52296712825282" lon="11.961814271332623"><ele>14.666666666666668</ele><time>2026-04-03T08:20:42.002Z</time></trkpt><trkpt lat="45.52312891145348" lon="11.96186814337341"><ele>15.0</ele><time>2026-04-03T08:20:43.002Z</time></trkpt><trkpt lat="45.52326910919808" lon="11.961921420659015"><ele>15.0</ele><time>2026-04-03T08:20:44.002Z</time></trkpt><trkpt lat="45.52343290377678" lon="11.961988254574836"><ele>15.0</ele><time>2026-04-03T08:20:45.001Z</time></trkpt><trkpt lat="45.52358874058505" lon="11.962044257654917"><ele>15.0</ele><time>2026-04-03T08:20:46.001Z</time></trkpt><trkpt lat="45.523748221667404" lon="11.962098850039856"><ele>15.333333333333332</ele><time>2026-04-03T08:20:47.001Z</time></trkpt><trkpt lat="45.52391699807274" lon="11.962158853949237"><ele>15.666666666666666</ele><time>2026-04-03T08:20:48.001Z</time></trkpt><trkpt lat="45.52408990110991" lon="11.962223008163772"><ele>16.0</ele><time>2026-04-03T08:20:49.001Z</time></trkpt><trkpt lat="45.524278455099314" lon="11.962292570195114"><ele>16.0</ele><time>2026-04-03T08:20:50.001Z</time></trkpt><trkpt lat="45.52446799217313" lon="11.962373104039337"><ele>16.0</ele><time>2026-04-03T08:20:51.001Z</time></trkpt><trkpt lat="45.52466502932004" lon="11.962441855162528"><ele>16.0</ele><time>2026-04-03T08:20:52.001Z</time></trkpt><trkpt lat="45.52486221687425" lon="11.962517209653852"><ele>15.666666666666666</ele><time>2026-04-03T08:20:53.001Z</time></trkpt><trkpt lat="45.525062664205365" lon="11.96259153554747"><ele>15.333333333333332</ele><time>2026-04-03T08:20:54.001Z</time></trkpt><trkpt lat="45.525263270972296" lon="11.962663365912924"><ele>15.0</ele><time>2026-04-03T08:20:55.001Z</time></trkpt><trkpt lat="45.52546588646481" lon="11.962742127379078"><ele>14.666666666666668</ele><time>2026-04-03T08:20:56.001Z</time></trkpt><trkpt lat="45.52567361404517" lon="11.96282006619503"><ele>14.333333333333334</ele><time>2026-04-03T08:20:57.001Z</time></trkpt><trkpt lat="45.525889284528645" lon="11.962894246567645"><ele>14.0</ele><time>2026-04-03T08:20:58.001Z</time></trkpt><trkpt lat="45.52610882360427" lon="11.962976552967593"><ele>15.0</ele><time>2026-04-03T08:20:59.001Z</time></trkpt><trkpt lat="45.526332621336515" lon="11.963057424962244"><ele>16.0</ele><time>2026-04-03T08:21:00.001Z</time></trkpt><trkpt lat="45.526554663350694" lon="11.963140260966394"><ele>16.0</ele><time>2026-04-03T08:21:01.001Z</time></trkpt><trkpt lat="45.52677317651197" lon="11.963218338837457"><ele>16.0</ele><time>2026-04-03T08:21:02.001Z</time></trkpt><trkpt lat="45.52699179157426" lon="11.96329733951527"><ele>16.0</ele><time>2026-04-03T08:21:03.001Z</time></trkpt><trkpt lat="45.52721498670316" lon="11.96338330791752"><ele>16.0</ele><time>2026-04-03T08:21:04.001Z</time></trkpt><trkpt lat="45.52742374976281" lon="11.963455119627453"><ele>16.0</ele><time>2026-04-03T08:21:05.001Z</time></trkpt><trkpt lat="45.52761111082232" lon="11.963531952977286"><ele>16.0</ele><time>2026-04-03T08:21:06.001Z</time></trkpt><trkpt lat="45.52779701643264" lon="11.963600559591788"><ele>16.0</ele><time>2026-04-03T08:21:07.001Z</time></trkpt><trkpt lat="45.52797475165319" lon="11.963673155242443"><ele>16.0</ele><time>2026-04-03T08:21:08.001Z</time></trkpt><trkpt lat="45.52814122743557" lon="11.96374481449912"><ele>15.666666666666666</ele><time>2026-04-03T08:21:09.001Z</time></trkpt><trkpt lat="45.528297249577804" lon="11.963806710353294"><ele>15.333333333333332</ele><time>2026-04-03T08:21:10.001Z</time></trkpt><trkpt lat="45.52844271525865" lon="11.963867105643713"><ele>15.0</ele><time>2026-04-03T08:21:11.001Z</time></trkpt><trkpt lat="45.52858158803804" lon="11.963922699044131"><ele>15.25</ele><time>2026-04-03T08:21:12.001Z</time></trkpt><trkpt lat="45.52872777659996" lon="11.963974417284392"><ele>15.5</ele><time>2026-04-03T08:21:13.001Z</time></trkpt><trkpt lat="45.52887013802858" lon="11.964023785423013"><ele>15.75</ele><time>2026-04-03T08:21:14.001Z</time></trkpt><trkpt lat="45.529015509825676" lon="11.96406836718305"><ele>16.0</ele><time>2026-04-03T08:21:15.001Z</time></trkpt><trkpt lat="45.5291641275171" lon="11.964117150924187"><ele>16.0</ele><time>2026-04-03T08:21:16.001Z</time></trkpt><trkpt lat="45.529310502622614" lon="11.964175895950298"><ele>16.0</ele><time>2026-04-03T08:21:17.001Z</time></trkpt><trkpt lat="45.529452443394945" lon="11.964230134147165"><ele>16.0</ele><time>2026-04-03T08:21:18.001Z</time></trkpt><trkpt lat="45.52958360883746" lon="11.964287972436821"><ele>16.0</ele><time>2026-04-03T08:21:19.001Z</time></trkpt><trkpt lat="45.529706727651025" lon="11.964334104193924"><ele>16.166666666666664</ele><time>2026-04-03T08:21:20.001Z</time></trkpt><trkpt lat="45.52981400276333" lon="11.964374356197"><ele>16.333333333333332</ele><time>2026-04-03T08:21:21.001Z</time></trkpt><trkpt lat="45.52989680011087" lon="11.964407656945228"><ele>16.5</ele><time>2026-04-03T08:21:22.001Z</time></trkpt><trkpt lat="45.52997022676435" lon="11.964441887525442"><ele>16.666666666666668</ele><time>2026-04-03T08:21:23.001Z</time></trkpt><trkpt lat="45.53006274289717" lon="11.964473298151809"><ele>16.833333333333336</ele><time>2026-04-03T08:21:25.001Z</time></trkpt><trkpt lat="45.53011134190416" lon="11.964409001678435"><ele>17.0</ele><time>2026-04-03T08:21:27.001Z</time></trkpt><trkpt lat="45.530092677463045" lon="11.96429185859354"><ele>17.0</ele><time>2026-04-03T08:21:29.001Z</time></trkpt><trkpt lat="45.52998925048658" lon="11.964241218681092"><ele>17.0</ele><time>2026-04-03T08:21:31.001Z</time></trkpt><trkpt lat="45.52985437157937" lon="11.964224357844227"><ele>17.0</ele><time>2026-04-03T08:21:33.001Z</time></trkpt><trkpt lat="45.5297705343548" lon="11.964200579722325"><ele>17.0</ele><time>2026-04-03T08:21:34.001Z</time></trkpt><trkpt lat="45.5296897362419" lon="11.96417031084147"><ele>17.0</ele><time>2026-04-03T08:21:35.001Z</time></trkpt><trkpt lat="45.529622264154675" lon="11.964143293922131"><ele>16.0</ele><time>2026-04-03T08:21:36.001Z</time></trkpt><trkpt lat="45.52950907758169" lon="11.964098182018596"><ele>16.0</ele><time>2026-04-03T08:21:38.001Z</time></trkpt><trkpt lat="45.52943826184035" lon="11.964051655908301"><ele>16.0</ele><time>2026-04-03T08:21:40.001Z</time></trkpt></trkseg><trkseg><trkpt lat="45.52419720529523" lon="11.96225184011483"><ele>16.0</ele><time>2026-04-03T08:31:21.999Z</time></trkpt><trkpt lat="45.5240891435042" lon="11.962206419215237"><ele>16.0</ele><time>2026-04-03T08:31:22.999Z</time></trkpt><trkpt lat="45.52398364056766" lon="11.962166992892094"><ele>16.0</ele><time>2026-04-03T08:31:23.999Z</time></trkpt><trkpt lat="45.52386515794083" lon="11.962124280869094"><ele>16.0</ele><time>2026-04-03T08:31:24.999Z</time></trkpt><trkpt lat="45.52373403445009" lon="11.962065143591849"><ele>15.666666666666666</ele><time>2026-04-03T08:31:25.999Z</time></trkpt><trkpt lat="45.5235922571337" lon="11.962011383587779"><ele>15.333333333333332</ele><time>2026-04-03T08:31:26.999Z</time></trkpt><trkpt lat="45.52343568111015" lon="11.961972693850582"><ele>15.0</ele><time>2026-04-03T08:31:27.999Z</time></trkpt><trkpt lat="45.523277125598774" lon="11.961916064765912"><ele>15.0</ele><time>2026-04-03T08:31:28.999Z</time></trkpt><trkpt lat="45.52311114810023" lon="11.961852193313264"><ele>15.0</ele><time>2026-04-03T08:31:29.999Z</time></trkpt><trkpt lat="45.52294272768527" lon="11.961771733338201"><ele>15.0</ele><time>2026-04-03T08:31:30.999Z</time></trkpt><trkpt lat="45.52275666395235" lon="11.961730336112767"><ele>14.666666666666668</ele><time>2026-04-03T08:31:31.999Z</time></trkpt><trkpt lat="45.52257295178808" lon="11.961661788807328"><ele>14.333333333333334</ele><time>2026-04-03T08:31:32.999Z</time></trkpt><trkpt lat="45.52238983767823" lon="11.96159523158504"><ele>14.0</ele><time>2026-04-03T08:31:34Z</time></trkpt><trkpt lat="45.52220666761341" lon="11.961527263710202"><ele>14.666666666666668</ele><time>2026-04-03T08:31:35Z</time></trkpt><trkpt lat="45.52201598321426" lon="11.961457851071259"><ele>15.333333333333332</ele><time>2026-04-03T08:31:36Z</time></trkpt><trkpt lat="45.52182457618891" lon="11.96139161151629"><ele>16.0</ele><time>2026-04-03T08:31:37Z</time></trkpt><trkpt lat="45.521634016353275" lon="11.961321524200077"><ele>16.0</ele><time>2026-04-03T08:31:38Z</time></trkpt><trkpt lat="45.52143801477932" lon="11.96124582743176"><ele>16.0</ele><time>2026-04-03T08:31:39Z</time></trkpt><trkpt lat="45.52124095883575" lon="11.961170822097207"><ele>16.0</ele><time>2026-04-03T08:31:40Z</time></trkpt><trkpt lat="45.52104362372486" lon="11.961072707831274"><ele>16.0</ele><time>2026-04-03T08:31:41Z</time></trkpt><trkpt lat="45.52084366669708" lon="11.960998605289756"><ele>16.0</ele><time>2026-04-03T08:31:42Z</time></trkpt><trkpt lat="45.52065736165626" lon="11.960929562057558"><ele>16.0</ele><time>2026-04-03T08:31:43Z</time></trkpt><trkpt lat="45.52048733263127" lon="11.960866552473481"><ele>15.666666666666666</ele><time>2026-04-03T08:31:44Z</time></trkpt><trkpt lat="45.52033053722338" lon="11.96080844527981"><ele>15.333333333333332</ele><time>2026-04-03T08:31:45Z</time></trkpt><trkpt lat="45.52017983080385" lon="11.96075259460167"><ele>15.0</ele><time>2026-04-03T08:31:46Z</time></trkpt><trkpt lat="45.520026084208105" lon="11.960695617255272"><ele>15.0</ele><time>2026-04-03T08:31:47Z</time></trkpt><trkpt lat="45.5198719475043" lon="11.960637958741792"><ele>15.0</ele><time>2026-04-03T08:31:48Z</time></trkpt><trkpt lat="45.519716731413304" lon="11.960579863073667"><ele>15.0</ele><time>2026-04-03T08:31:49Z</time></trkpt><trkpt lat="45.519557284767444" lon="11.960520183953234"><ele>15.333333333333332</ele><time>2026-04-03T08:31:50Z</time></trkpt><trkpt lat="45.519390032257725" lon="11.960481824950671"><ele>15.666666666666666</ele><time>2026-04-03T08:31:51Z</time></trkpt><trkpt lat="45.51922249189049" lon="11.960415297260996"><ele>16.0</ele><time>2026-04-03T08:31:52Z</time></trkpt><trkpt lat="45.51905715577905" lon="11.960353558756902"><ele>16.0</ele><time>2026-04-03T08:31:53Z</time></trkpt><trkpt lat="45.51889060348159" lon="11.960294936563075"><ele>16.0</ele><time>2026-04-03T08:31:54Z</time></trkpt><trkpt lat="45.5187251335632" lon="11.960208718941425"><ele>16.0</ele><time>2026-04-03T08:31:55Z</time></trkpt><trkpt lat="45.51855194234669" lon="11.960143895385094"><ele>16.0</ele><time>2026-04-03T08:31:56Z</time></trkpt><trkpt lat="45.5183780152562" lon="11.960080500721592"><ele>16.0</ele><time>2026-04-03T08:31:57Z</time></trkpt><trkpt lat="45.518204626617624" lon="11.96001722089438"><ele>16.0</ele><time>2026-04-03T08:31:58Z</time></trkpt><trkpt lat="45.518045222022224" lon="11.95995904471448"><ele>16.0</ele><time>2026-04-03T08:31:59Z</time></trkpt><trkpt lat="45.51789990888982" lon="11.95990597734844"><ele>16.0</ele><time>2026-04-03T08:32:00Z</time></trkpt><trkpt lat="45.51775687449362" lon="11.95985336851981"><ele>16.0</ele><time>2026-04-03T08:32:01Z</time></trkpt><trkpt lat="45.51761214927782" lon="11.959800137808518"><ele>16.0</ele><time>2026-04-03T08:32:02Z</time></trkpt><trkpt lat="45.51746462201875" lon="11.959745876499921"><ele>16.0</ele><time>2026-04-03T08:32:03Z</time></trkpt><trkpt lat="45.51731763195744" lon="11.959691812771236"><ele>16.0</ele><time>2026-04-03T08:32:04Z</time></trkpt><trkpt lat="45.517165495296325" lon="11.959635856083228"><ele>16.0</ele><time>2026-04-03T08:32:05Z</time></trkpt><trkpt lat="45.51701652775809" lon="11.95958106503847"><ele>15.0</ele><time>2026-04-03T08:32:06Z</time></trkpt><trkpt lat="45.51686444777175" lon="11.959525129223321"><ele>14.0</ele><time>2026-04-03T08:32:07Z</time></trkpt><trkpt lat="45.516713300918305" lon="11.959468957640823"><ele>13.0</ele><time>2026-04-03T08:32:08Z</time></trkpt><trkpt lat="45.51655980517304" lon="11.959411817971205"><ele>13.0</ele><time>2026-04-03T08:32:09Z</time></trkpt><trkpt lat="45.51640505560221" lon="11.959354237960431"><ele>13.0</ele><time>2026-04-03T08:32:10Z</time></trkpt><trkpt lat="45.51625109501832" lon="11.959297095668386"><ele>13.0</ele><time>2026-04-03T08:32:11Z</time></trkpt><trkpt lat="45.516092497749305" lon="11.959238232485852"><ele>13.333333333333332</ele><time>2026-04-03T08:32:12Z</time></trkpt><trkpt lat="45.51592767651699" lon="11.959177059270687"><ele>13.666666666666668</ele><time>2026-04-03T08:32:13Z</time></trkpt><trkpt lat="45.515758510299676" lon="11.959114275365438"><ele>14.0</ele><time>2026-04-03T08:32:14Z</time></trkpt><trkpt lat="45.515593044909195" lon="11.959052731290713"><ele>14.0</ele><time>2026-04-03T08:32:15Z</time></trkpt><trkpt lat="45.51542196102567" lon="11.958988911003484"><ele>14.0</ele><time>2026-04-03T08:32:16Z</time></trkpt><trkpt lat="45.51525011281728" lon="11.958925319348102"><ele>14.0</ele><time>2026-04-03T08:32:17Z</time></trkpt><trkpt lat="45.515076976810974" lon="11.958861818604856"><ele>13.666666666666668</ele><time>2026-04-03T08:32:18Z</time></trkpt><trkpt lat="45.51490347886391" lon="11.958797566422243"><ele>13.333333333333332</ele><time>2026-04-03T08:32:19Z</time></trkpt><trkpt lat="45.51474154992088" lon="11.958737419979206"><ele>13.0</ele><time>2026-04-03T08:32:20Z</time></trkpt><trkpt lat="45.51458981401961" lon="11.958704862182099"><ele>13.25</ele><time>2026-04-03T08:32:21Z</time></trkpt><trkpt lat="45.51445773035435" lon="11.958631998812054"><ele>13.5</ele><time>2026-04-03T08:32:22Z</time></trkpt><trkpt lat="45.514323535607154" lon="11.958582153883704"><ele>13.75</ele><time>2026-04-03T08:32:23Z</time></trkpt><trkpt lat="45.51418878122192" lon="11.95853210108283"><ele>14.0</ele><time>2026-04-03T08:32:24Z</time></trkpt><trkpt lat="45.51405227616015" lon="11.958481398015564"><ele>14.0</ele><time>2026-04-03T08:32:25Z</time></trkpt><trkpt lat="45.513912820501" lon="11.958436892808018"><ele>14.0</ele><time>2026-04-03T08:32:26Z</time></trkpt><trkpt lat="45.51377877534146" lon="11.95839322721759"><ele>14.0</ele><time>2026-04-03T08:32:27Z</time></trkpt><trkpt lat="45.51363799758564" lon="11.95835166321194"><ele>14.0</ele><time>2026-04-03T08:32:28Z</time></trkpt><trkpt lat="45.51350196095996" lon="11.958295038336818"><ele>13.75</ele><time>2026-04-03T08:32:29Z</time></trkpt><trkpt lat="45.51337756714716" lon="11.95825031162057"><ele>13.5</ele><time>2026-04-03T08:32:30Z</time></trkpt><trkpt lat="45.51326349266606" lon="11.958204032019697"><ele>13.25</ele><time>2026-04-03T08:32:31Z</time></trkpt><trkpt lat="45.513153228325756" lon="11.958166881589893"><ele>13.0</ele><time>2026-04-03T08:32:32Z</time></trkpt><trkpt lat="45.513054006328964" lon="11.958131750970226"><ele>12.999999999999998</ele><time>2026-04-03T08:32:33Z</time></trkpt><trkpt lat="45.51295659292956" lon="11.958095905443784"><ele>13.0</ele><time>2026-04-03T08:32:34Z</time></trkpt><trkpt lat="45.512871334602316" lon="11.958064828060095"><ele>13.0</ele><time>2026-04-03T08:32:35Z</time></trkpt><trkpt lat="45.51279471346901" lon="11.958035753989558"><ele>13.0</ele><time>2026-04-03T08:32:36Z</time></trkpt><trkpt lat="45.51273132698056" lon="11.958004622177757"><ele>12.999999999999998</ele><time>2026-04-03T08:32:37Z</time></trkpt><trkpt lat="45.51263427077869" lon="11.95796649603938"><ele>13.0</ele><time>2026-04-03T08:32:39Z</time></trkpt><trkpt lat="45.51258530315785" lon="11.958058656663969"><ele>13.0</ele><time>2026-04-03T08:32:43Z</time></trkpt><trkpt lat="45.51266883367747" lon="11.958067071060968"><ele>13.0</ele><time>2026-04-03T08:32:49Z</time></trkpt><trkpt lat="45.51275140751233" lon="11.958003010836826"><ele>13.0</ele><time>2026-04-03T08:32:51Z</time></trkpt><trkpt lat="45.51282213451534" lon="11.957950661842405"><ele>13.0</ele><time>2026-04-03T08:32:53Z</time></trkpt><trkpt lat="45.51314214606134" lon="11.957414870073821"><ele>13.0</ele><time>2026-04-03T08:32:54Z</time></trkpt><trkpt lat="45.51322000367806" lon="11.957488896636738"><ele>13.0</ele><time>2026-04-03T08:32:55Z</time></trkpt><trkpt lat="45.513310189965665" lon="11.957565727295519"><ele>13.0</ele><time>2026-04-03T08:32:56Z</time></trkpt><trkpt lat="45.513409417332554" lon="11.95764824265411"><ele>13.0</ele><time>2026-04-03T08:32:57Z</time></trkpt><trkpt lat="45.51363582811534" lon="11.957821443100439"><ele>13.5</ele><time>2026-04-03T08:32:59Z</time></trkpt><trkpt lat="45.51375805302578" lon="11.957913028527788"><ele>14.0</ele><time>2026-04-03T08:33:00Z</time></trkpt><trkpt lat="45.51381400557413" lon="11.958445920955867"><ele>14.0</ele><time>2026-04-03T08:33:01Z</time></trkpt><trkpt lat="45.513959714387" lon="11.958500144664155"><ele>14.0</ele><time>2026-04-03T08:33:02Z</time></trkpt><trkpt lat="45.51410555186341" lon="11.958552599796597"><ele>14.0</ele><time>2026-04-03T08:33:03Z</time></trkpt><trkpt lat="45.514257312855996" lon="11.958610320177735"><ele>14.0</ele><time>2026-04-03T08:33:04Z</time></trkpt><trkpt lat="45.514408665534546" lon="11.958667867287687"><ele>14.0</ele><time>2026-04-03T08:33:05Z</time></trkpt><trkpt lat="45.51455816127171" lon="11.958722388499192"><ele>14.0</ele><time>2026-04-03T08:33:06Z</time></trkpt><trkpt lat="45.51468657896377" lon="11.958772881749013"><ele>14.0</ele><time>2026-04-03T08:33:07Z</time></trkpt><trkpt lat="45.51481180427495" lon="11.958818109262515"><ele>13.799999999999999</ele><time>2026-04-03T08:33:08Z</time></trkpt><trkpt lat="45.51492632901615" lon="11.958864072195542"><ele>13.599999999999998</ele><time>2026-04-03T08:33:09Z</time></trkpt><trkpt lat="45.515032942103716" lon="11.958908508822736"><ele>13.4</ele><time>2026-04-03T08:33:10.001Z</time></trkpt><trkpt lat="45.51512356901616" lon="11.958944509848724"><ele>13.2</ele><time>2026-04-03T08:33:11.001Z</time></trkpt><trkpt lat="45.51519939690567" lon="11.958959388174092"><ele>13.0</ele><time>2026-04-03T08:33:12.001Z</time></trkpt><trkpt lat="45.51529871469455" lon="11.958992046567994"><ele>13.0</ele><time>2026-04-03T08:33:14.001Z</time></trkpt><trkpt lat="45.51536561215659" lon="11.958793179810149"><ele>13.0</ele><time>2026-04-03T08:33:16.001Z</time></trkpt><trkpt lat="45.51538168121855" lon="11.958679251327295"><ele>13.0</ele><time>2026-04-03T08:33:17.001Z</time></trkpt><trkpt lat="45.51539944702714" lon="11.958551515801403"><ele>13.0</ele><time>2026-04-03T08:33:18.001Z</time></trkpt><trkpt lat="45.515423031137544" lon="11.958407471312187"><ele>13.0</ele><time>2026-04-03T08:33:19.001Z</time></trkpt><trkpt lat="45.515448965478605" lon="11.95824879595726"><ele>13.0</ele><time>2026-04-03T08:33:20.001Z</time></trkpt><trkpt lat="45.51547677571369" lon="11.958075906447073"><ele>13.0</ele><time>2026-04-03T08:33:20.999Z</time></trkpt><trkpt lat="45.51551363256205" lon="11.957893725552342"><ele>13.0</ele><time>2026-04-03T08:33:21.999Z</time></trkpt><trkpt lat="45.51554628016465" lon="11.957691360264763"><ele>13.0</ele><time>2026-04-03T08:33:22.999Z</time></trkpt><trkpt lat="45.5155861056554" lon="11.957486701329023"><ele>13.333333333333332</ele><time>2026-04-03T08:33:23.999Z</time></trkpt><trkpt lat="45.51562913949756" lon="11.957260493255404"><ele>13.666666666666668</ele><time>2026-04-03T08:33:24.999Z</time></trkpt><trkpt lat="45.5156664977205" lon="11.95703576278239"><ele>14.0</ele><time>2026-04-03T08:33:25.999Z</time></trkpt><trkpt lat="45.51570795339058" lon="11.95679601751945"><ele>14.0</ele><time>2026-04-03T08:33:26.999Z</time></trkpt><trkpt lat="45.515753588375176" lon="11.956550785828144"><ele>14.0</ele><time>2026-04-03T08:33:27.999Z</time></trkpt><trkpt lat="45.5157986240908" lon="11.956293203321442"><ele>14.0</ele><time>2026-04-03T08:33:28.999Z</time></trkpt><trkpt lat="45.51584268448733" lon="11.95603136320202"><ele>13.666666666666668</ele><time>2026-04-03T08:33:29.999Z</time></trkpt><trkpt lat="45.51589457584665" lon="11.955767796958115"><ele>13.333333333333332</ele><time>2026-04-03T08:33:30.999Z</time></trkpt><trkpt lat="45.51594543195423" lon="11.95549900984544"><ele>13.0</ele><time>2026-04-03T08:33:31.999Z</time></trkpt><trkpt lat="45.516005611038736" lon="11.955240354063612"><ele>13.333333333333332</ele><time>2026-04-03T08:33:32.999Z</time></trkpt><trkpt lat="45.51607339585256" lon="11.954985656691148"><ele>13.666666666666668</ele><time>2026-04-03T08:33:33.999Z</time></trkpt><trkpt lat="45.516133796576284" lon="11.9547268317071"><ele>14.0</ele><time>2026-04-03T08:33:34.999Z</time></trkpt><trkpt lat="45.516182877431326" lon="11.954463192333668"><ele>14.0</ele><time>2026-04-03T08:33:35.999Z</time></trkpt><trkpt lat="45.51622774697533" lon="11.954197984445535"><ele>14.0</ele><time>2026-04-03T08:33:36.999Z</time></trkpt><trkpt lat="45.516272353594424" lon="11.953918217991157"><ele>14.0</ele><time>2026-04-03T08:33:37.999Z</time></trkpt><trkpt lat="45.51630001803419" lon="11.953642867410379"><ele>13.666666666666668</ele><time>2026-04-03T08:33:38.999Z</time></trkpt><trkpt lat="45.51632940777993" lon="11.953356053613048"><ele>13.333333333333332</ele><time>2026-04-03T08:33:39.999Z</time></trkpt><trkpt lat="45.516361342472955" lon="11.953069198771445"><ele>13.0</ele><time>2026-04-03T08:33:40.999Z</time></trkpt><trkpt lat="45.51638931013006" lon="11.952779084482598"><ele>13.333333333333332</ele><time>2026-04-03T08:33:41.999Z</time></trkpt><trkpt lat="45.516421145456036" lon="11.952479395599758"><ele>13.666666666666668</ele><time>2026-04-03T08:33:42.999Z</time></trkpt><trkpt lat="45.51645063562533" lon="11.952179617524154"><ele>14.0</ele><time>2026-04-03T08:33:44Z</time></trkpt><trkpt lat="45.51648314849308" lon="11.95188086245464"><ele>14.0</ele><time>2026-04-03T08:33:45Z</time></trkpt><trkpt lat="45.51651655038057" lon="11.951580837300861"><ele>14.0</ele><time>2026-04-03T08:33:46Z</time></trkpt><trkpt lat="45.516550752803916" lon="11.95127668461336"><ele>14.0</ele><time>2026-04-03T08:33:47Z</time></trkpt><trkpt lat="45.51659238294371" lon="11.950975372834602"><ele>14.333333333333334</ele><time>2026-04-03T08:33:48Z</time></trkpt><trkpt lat="45.51663970066799" lon="11.950672619710948"><ele>14.666666666666668</ele><time>2026-04-03T08:33:49Z</time></trkpt><trkpt lat="45.516691810188775" lon="11.950366641682143"><ele>15.0</ele><time>2026-04-03T08:33:50Z</time></trkpt><trkpt lat="45.51674578446477" lon="11.950058678577486"><ele>14.666666666666668</ele><time>2026-04-03T08:33:51Z</time></trkpt><trkpt lat="45.51679584029297" lon="11.94974963353777"><ele>14.333333333333334</ele><time>2026-04-03T08:33:52Z</time></trkpt><trkpt lat="45.51684965779531" lon="11.949440333302375"><ele>14.0</ele><time>2026-04-03T08:33:53Z</time></trkpt><trkpt lat="45.51690590626416" lon="11.949123781358196"><ele>15.0</ele><time>2026-04-03T08:33:54Z</time></trkpt><trkpt lat="45.51696284321086" lon="11.948811592592904"><ele>16.0</ele><time>2026-04-03T08:33:55Z</time></trkpt><trkpt lat="45.51702121337404" lon="11.948495131614536"><ele>15.0</ele><time>2026-04-03T08:33:56Z</time></trkpt><trkpt lat="45.517080380444455" lon="11.948180947549169"><ele>14.0</ele><time>2026-04-03T08:33:57Z</time></trkpt><trkpt lat="45.517139943770864" lon="11.947866340337185"><ele>14.0</ele><time>2026-04-03T08:33:58Z</time></trkpt><trkpt lat="45.517204033536096" lon="11.947544433268513"><ele>14.0</ele><time>2026-04-03T08:33:59Z</time></trkpt><trkpt lat="45.517266285232886" lon="11.947221836211785"><ele>14.0</ele><time>2026-04-03T08:34:00Z</time></trkpt><trkpt lat="45.517328768969726" lon="11.946894285768314"><ele>14.0</ele><time>2026-04-03T08:34:01Z</time></trkpt><trkpt lat="45.51738466107635" lon="11.946564052009439"><ele>14.0</ele><time>2026-04-03T08:34:02Z</time></trkpt><trkpt lat="45.5174463471724" lon="11.946234317388267"><ele>14.0</ele><time>2026-04-03T08:34:03Z</time></trkpt><trkpt lat="45.51750207643117" lon="11.945920634340487"><ele>14.0</ele><time>2026-04-03T08:34:04Z</time></trkpt><trkpt lat="45.51755934167975" lon="11.945639475490264"><ele>14.0</ele><time>2026-04-03T08:34:05Z</time></trkpt><trkpt lat="45.51761704867337" lon="11.945367248511923"><ele>14.0</ele><time>2026-04-03T08:34:06Z</time></trkpt><trkpt lat="45.51766858997405" lon="11.945107489893525"><ele>14.0</ele><time>2026-04-03T08:34:07Z</time></trkpt><trkpt lat="45.517715405555066" lon="11.944849325508407"><ele>14.0</ele><time>2026-04-03T08:34:08Z</time></trkpt><trkpt lat="45.51776331584226" lon="11.944596464321563"><ele>14.0</ele><time>2026-04-03T08:34:09Z</time></trkpt><trkpt lat="45.51780907163666" lon="11.944338877802814"><ele>14.0</ele><time>2026-04-03T08:34:10Z</time></trkpt><trkpt lat="45.51785522869021" lon="11.94407887745722"><ele>14.0</ele><time>2026-04-03T08:34:11Z</time></trkpt><trkpt lat="45.51789685168303" lon="11.943839317531125"><ele>14.0</ele><time>2026-04-03T08:34:12Z</time></trkpt><trkpt lat="45.51793666607205" lon="11.943606794200612"><ele>14.0</ele><time>2026-04-03T08:34:13Z</time></trkpt><trkpt lat="45.51798034772429" lon="11.943366051879018"><ele>14.0</ele><time>2026-04-03T08:34:14Z</time></trkpt><trkpt lat="45.518042798153424" lon="11.943113652733528"><ele>14.0</ele><time>2026-04-03T08:34:15Z</time></trkpt><trkpt lat="45.51808940017161" lon="11.942858929726627"><ele>14.0</ele><time>2026-04-03T08:34:16Z</time></trkpt><trkpt lat="45.518135344032224" lon="11.942607804153386"><ele>14.0</ele><time>2026-04-03T08:34:17Z</time></trkpt><trkpt lat="45.51817047630682" lon="11.94234907726178"><ele>14.0</ele><time>2026-04-03T08:34:19Z</time></trkpt><trkpt lat="45.51820247456128" lon="11.942174440837462"><ele>14.2</ele><time>2026-04-03T08:34:20Z</time></trkpt><trkpt lat="45.51823158093283" lon="11.94202053370797"><ele>14.399999999999999</ele><time>2026-04-03T08:34:21Z</time></trkpt><trkpt lat="45.51825904489478" lon="11.941873493967144"><ele>14.6</ele><time>2026-04-03T08:34:22Z</time></trkpt><trkpt lat="45.51828566764978" lon="11.94173516596514"><ele>14.8</ele><time>2026-04-03T08:34:23Z</time></trkpt><trkpt lat="45.51830687106907" lon="11.941614931323032"><ele>15.0</ele><time>2026-04-03T08:34:24Z</time></trkpt><trkpt lat="45.51832800583563" lon="11.941516403746098"><ele>15.0</ele><time>2026-04-03T08:34:25Z</time></trkpt><trkpt lat="45.51836031449345" lon="11.941397169294397"><ele>15.0</ele><time>2026-04-03T08:34:27Z</time></trkpt><trkpt lat="45.518426435584026" lon="11.941379877628673"><ele>15.0</ele><time>2026-04-03T08:34:45Z</time></trkpt><trkpt lat="45.51851213637964" lon="11.941451776952647"><ele>15.0</ele><time>2026-04-03T08:34:47Z</time></trkpt><trkpt lat="45.51860165444857" lon="11.941469193347137"><ele>15.0</ele><time>2026-04-03T08:34:48Z</time></trkpt><trkpt lat="45.518697739519865" lon="11.941495539510175"><ele>15.0</ele><time>2026-04-03T08:34:49Z</time></trkpt><trkpt lat="45.51880226719506" lon="11.94153544985054"><ele>15.25</ele><time>2026-04-03T08:34:50Z</time></trkpt><trkpt lat="45.51891649017054" lon="11.94157415917138"><ele>15.5</ele><time>2026-04-03T08:34:51Z</time></trkpt><trkpt lat="45.51903611863959" lon="11.941626956271907"><ele>15.75</ele><time>2026-04-03T08:34:52Z</time></trkpt><trkpt lat="45.519170233433506" lon="11.941682354237907"><ele>16.0</ele><time>2026-04-03T08:34:53Z</time></trkpt><trkpt lat="45.51931904078012" lon="11.941710148613717"><ele>16.666666666666664</ele><time>2026-04-03T08:34:54Z</time></trkpt><trkpt lat="45.51947344130886" lon="11.941784636680017"><ele>17.333333333333332</ele><time>2026-04-03T08:34:55Z</time></trkpt><trkpt lat="45.51964246289211" lon="11.941848536068887"><ele>18.0</ele><time>2026-04-03T08:34:56.001Z</time></trkpt><trkpt lat="45.51981435758745" lon="11.94190871626023"><ele>16.666666666666668</ele><time>2026-04-03T08:34:57.001Z</time></trkpt><trkpt lat="45.51999900838046" lon="11.941980136395427"><ele>15.333333333333334</ele><time>2026-04-03T08:34:58.001Z</time></trkpt><trkpt lat="45.520182826236244" lon="11.942049895518071"><ele>14.0</ele><time>2026-04-03T08:34:59.001Z</time></trkpt><trkpt lat="45.5203827931809" lon="11.94213062909485"><ele>14.333333333333334</ele><time>2026-04-03T08:35:00.001Z</time></trkpt><trkpt lat="45.52057978759048" lon="11.94220444352293"><ele>14.666666666666668</ele><time>2026-04-03T08:35:01.001Z</time></trkpt><trkpt lat="45.520784892507095" lon="11.942282561775741"><ele>15.0</ele><time>2026-04-03T08:35:02.001Z</time></trkpt><trkpt lat="45.520989760335375" lon="11.942359969189285"><ele>15.0</ele><time>2026-04-03T08:35:03.001Z</time></trkpt><trkpt lat="45.521197351453324" lon="11.942442156246297"><ele>15.0</ele><time>2026-04-03T08:35:04.001Z</time></trkpt><trkpt lat="45.52140872974676" lon="11.942521770343369"><ele>15.0</ele><time>2026-04-03T08:35:05.001Z</time></trkpt><trkpt lat="45.521628659702266" lon="11.942605779675082"><ele>15.0</ele><time>2026-04-03T08:35:06.001Z</time></trkpt><trkpt lat="45.521842436172584" lon="11.942680258389295"><ele>15.0</ele><time>2026-04-03T08:35:07.001Z</time></trkpt><trkpt lat="45.522064160768394" lon="11.94276399603871"><ele>15.0</ele><time>2026-04-03T08:35:08.001Z</time></trkpt><trkpt lat="45.52228647901544" lon="11.94285020799081"><ele>15.5</ele><time>2026-04-03T08:35:09.001Z</time></trkpt><trkpt lat="45.52250667392578" lon="11.942948916140791"><ele>16.0</ele><time>2026-04-03T08:35:10.001Z</time></trkpt><trkpt lat="45.52274332316252" lon="11.9430222163753"><ele>15.5</ele><time>2026-04-03T08:35:11.001Z</time></trkpt><trkpt lat="45.52297325337371" lon="11.943109829917882"><ele>15.0</ele><time>2026-04-03T08:35:12.001Z</time></trkpt><trkpt lat="45.52321375239084" lon="11.943200967348202"><ele>15.0</ele><time>2026-04-03T08:35:13.001Z</time></trkpt><trkpt lat="45.52343519738509" lon="11.943279638892157"><ele>15.0</ele><time>2026-04-03T08:35:14.001Z</time></trkpt><trkpt lat="45.523643242481015" lon="11.943352616042512"><ele>15.0</ele><time>2026-04-03T08:35:15.001Z</time></trkpt><trkpt lat="45.52383862118312" lon="11.943427211129933"><ele>15.666666666666668</ele><time>2026-04-03T08:35:16.001Z</time></trkpt><trkpt lat="45.524032288698706" lon="11.943500050162948"><ele>16.333333333333336</ele><time>2026-04-03T08:35:17.001Z</time></trkpt><trkpt lat="45.52422901752573" lon="11.94357803904918"><ele>17.0</ele><time>2026-04-03T08:35:18.001Z</time></trkpt><trkpt lat="45.52441727137717" lon="11.943643673810525"><ele>17.0</ele><time>2026-04-03T08:35:19.001Z</time></trkpt><trkpt lat="45.52458956773575" lon="11.943705229534586"><ele>17.0</ele><time>2026-04-03T08:35:20.001Z</time></trkpt><trkpt lat="45.52475931368474" lon="11.943768461674862"><ele>17.0</ele><time>2026-04-03T08:35:21.001Z</time></trkpt><trkpt lat="45.52492744990118" lon="11.94382930193587"><ele>17.0</ele><time>2026-04-03T08:35:22.001Z</time></trkpt><trkpt lat="45.52510355337949" lon="11.94388994376454"><ele>17.0</ele><time>2026-04-03T08:35:23.001Z</time></trkpt><trkpt lat="45.525283043576046" lon="11.94395143835332"><ele>17.0</ele><time>2026-04-03T08:35:24.001Z</time></trkpt><trkpt lat="45.52547104831725" lon="11.944020023400409"><ele>16.666666666666668</ele><time>2026-04-03T08:35:25.001Z</time></trkpt><trkpt lat="45.52565530799153" lon="11.944086462609603"><ele>16.333333333333332</ele><time>2026-04-03T08:35:26.001Z</time></trkpt><trkpt lat="45.52582903532546" lon="11.944152633057671"><ele>16.0</ele><time>2026-04-03T08:35:26.999Z</time></trkpt><trkpt lat="45.52599314160074" lon="11.944209618083637"><ele>16.0</ele><time>2026-04-03T08:35:27.999Z</time></trkpt><trkpt lat="45.526172001613546" lon="11.944273108151073"><ele>16.0</ele><time>2026-04-03T08:35:28.999Z</time></trkpt><trkpt lat="45.526357651355106" lon="11.944337208262368"><ele>16.0</ele><time>2026-04-03T08:35:29.999Z</time></trkpt><trkpt lat="45.52654120240731" lon="11.944403869790035"><ele>16.0</ele><time>2026-04-03T08:35:30.999Z</time></trkpt><trkpt lat="45.52672464638901" lon="11.944477279699923"><ele>16.0</ele><time>2026-04-03T08:35:31.999Z</time></trkpt><trkpt lat="45.52691746335995" lon="11.944542530301453"><ele>16.0</ele><time>2026-04-03T08:35:32.999Z</time></trkpt><trkpt lat="45.52711290125374" lon="11.944614939897756"><ele>16.666666666666664</ele><time>2026-04-03T08:35:33.999Z</time></trkpt><trkpt lat="45.52730024537779" lon="11.944687460972514"><ele>17.333333333333332</ele><time>2026-04-03T08:35:35Z</time></trkpt><trkpt lat="45.52749623440953" lon="11.944757190446586"><ele>18.0</ele><time>2026-04-03T08:35:36Z</time></trkpt><trkpt lat="45.5277017333835" lon="11.944830948560902"><ele>17.666666666666668</ele><time>2026-04-03T08:35:37Z</time></trkpt><trkpt lat="45.52790929454689" lon="11.944912909765772"><ele>17.333333333333336</ele><time>2026-04-03T08:35:38Z</time></trkpt><trkpt lat="45.528124622471026" lon="11.944991313546469"><ele>17.0</ele><time>2026-04-03T08:35:39Z</time></trkpt><trkpt lat="45.52834894488438" lon="11.945065801314001"><ele>17.0</ele><time>2026-04-03T08:35:40Z</time></trkpt><trkpt lat="45.52857102641592" lon="11.94514350245802"><ele>17.0</ele><time>2026-04-03T08:35:41Z</time></trkpt><trkpt lat="45.52879218625799" lon="11.94524572067197"><ele>16.0</ele><time>2026-04-03T08:35:42Z</time></trkpt><trkpt lat="45.52902334395055" lon="11.945332597932708"><ele>15.0</ele><time>2026-04-03T08:35:43Z</time></trkpt><trkpt lat="45.52925495666472" lon="11.945419646195043"><ele>15.0</ele><time>2026-04-03T08:35:44Z</time></trkpt><trkpt lat="45.52949037943391" lon="11.945507976760732"><ele>15.0</ele><time>2026-04-03T08:35:45Z</time></trkpt><trkpt lat="45.529733302556465" lon="11.945582521017874"><ele>15.0</ele><time>2026-04-03T08:35:46Z</time></trkpt><trkpt lat="45.529968497255396" lon="11.94567380852898"><ele>15.0</ele><time>2026-04-03T08:35:47Z</time></trkpt><trkpt lat="45.53020676564085" lon="11.945762416087591"><ele>15.5</ele><time>2026-04-03T08:35:48Z</time></trkpt><trkpt lat="45.53044743606368" lon="11.945851535829723"><ele>16.0</ele><time>2026-04-03T08:35:49Z</time></trkpt><trkpt lat="45.53068822142375" lon="11.945938869216361"><ele>16.0</ele><time>2026-04-03T08:35:50Z</time></trkpt><trkpt lat="45.5309078570797" lon="11.94602085369761"><ele>16.0</ele><time>2026-04-03T08:35:51Z</time></trkpt><trkpt lat="45.53111645964391" lon="11.946097590353336"><ele>16.0</ele><time>2026-04-03T08:35:52Z</time></trkpt><trkpt lat="45.53132296718642" lon="11.946185465559314"><ele>16.333333333333332</ele><time>2026-04-03T08:35:53Z</time></trkpt><trkpt lat="45.53152127007342" lon="11.946243500873482"><ele>16.666666666666668</ele><time>2026-04-03T08:35:54Z</time></trkpt><trkpt lat="45.531718313937816" lon="11.946319778687528"><ele>17.0</ele><time>2026-04-03T08:35:55Z</time></trkpt><trkpt lat="45.53189656789072" lon="11.946389488337704"><ele>16.666666666666668</ele><time>2026-04-03T08:35:56Z</time></trkpt><trkpt lat="45.53207070055883" lon="11.946457960564878"><ele>16.333333333333332</ele><time>2026-04-03T08:35:57Z</time></trkpt><trkpt lat="45.532244990276986" lon="11.946519049000717"><ele>16.0</ele><time>2026-04-03T08:35:58Z</time></trkpt><trkpt lat="45.53241135036155" lon="11.946589136703759"><ele>16.0</ele><time>2026-04-03T08:35:59Z</time></trkpt><trkpt lat="45.53258350622505" lon="11.946655776171479"><ele>16.0</ele><time>2026-04-03T08:36:00Z</time></trkpt><trkpt lat="45.532758221752076" lon="11.946726363690551"><ele>16.0</ele><time>2026-04-03T08:36:01Z</time></trkpt><trkpt lat="45.53293101012217" lon="11.946791779998273"><ele>16.0</ele><time>2026-04-03T08:36:02Z</time></trkpt><trkpt lat="45.53308468805763" lon="11.94687124978572"><ele>16.0</ele><time>2026-04-03T08:36:03Z</time></trkpt><trkpt lat="45.533251181474945" lon="11.946917779620998"><ele>16.0</ele><time>2026-04-03T08:36:04Z</time></trkpt><trkpt lat="45.53339562254489" lon="11.946970618086713"><ele>16.0</ele><time>2026-04-03T08:36:05Z</time></trkpt><trkpt lat="45.53352529947725" lon="11.947017124974442"><ele>16.0</ele><time>2026-04-03T08:36:06Z</time></trkpt><trkpt lat="45.533641556388844" lon="11.947062934290116"><ele>16.0</ele><time>2026-04-03T08:36:07Z</time></trkpt><trkpt lat="45.53374668620773" lon="11.947096766698811"><ele>16.0</ele><time>2026-04-03T08:36:08Z</time></trkpt><trkpt lat="45.53383666650109" lon="11.947118661902076"><ele>16.8</ele><time>2026-04-03T08:36:09Z</time></trkpt><trkpt lat="45.53392193393882" lon="11.947151293591432"><ele>17.6</ele><time>2026-04-03T08:36:10Z</time></trkpt><trkpt lat="45.53399384212926" lon="11.947176398640869"><ele>18.4</ele><time>2026-04-03T08:36:11Z</time></trkpt><trkpt lat="45.53410083542385" lon="11.947224122554424"><ele>19.2</ele><time>2026-04-03T08:36:13Z</time></trkpt><trkpt lat="45.53419378598031" lon="11.94726423095773"><ele>20.0</ele><time>2026-04-03T08:36:23Z</time></trkpt><trkpt lat="45.534245802450585" lon="11.947069045152352"><ele>20.0</ele><time>2026-04-03T08:36:25Z</time></trkpt><trkpt lat="45.53424519296855" lon="11.94695672063946"><ele>20.0</ele><time>2026-04-03T08:36:26Z</time></trkpt><trkpt lat="45.53426058407631" lon="11.946839437713031"><ele>20.0</ele><time>2026-04-03T08:36:27Z</time></trkpt><trkpt lat="45.53428339204477" lon="11.946741870912518"><ele>20.0</ele><time>2026-04-03T08:36:28Z</time></trkpt><trkpt lat="45.534307472356154" lon="11.946564890535898"><ele>20.0</ele><time>2026-04-03T08:36:29Z</time></trkpt><trkpt lat="45.53433143991038" lon="11.946408436102589"><ele>20.0</ele><time>2026-04-03T08:36:30Z</time></trkpt><trkpt lat="45.53435950410358" lon="11.946230263055682"><ele>20.0</ele><time>2026-04-03T08:36:31Z</time></trkpt><trkpt lat="45.53439461678983" lon="11.946035882916602"><ele>20.0</ele><time>2026-04-03T08:36:32.001Z</time></trkpt><trkpt lat="45.534432756225144" lon="11.945830046426003"><ele>20.0</ele><time>2026-04-03T08:36:33.001Z</time></trkpt><trkpt lat="45.53447525641646" lon="11.94559984282593"><ele>19.666666666666668</ele><time>2026-04-03T08:36:34.001Z</time></trkpt><trkpt lat="45.53451896716855" lon="11.945360187316574"><ele>19.333333333333332</ele><time>2026-04-03T08:36:35.001Z</time></trkpt><trkpt lat="45.53456526756822" lon="11.945109182828654"><ele>19.0</ele><time>2026-04-03T08:36:36.001Z</time></trkpt><trkpt lat="45.53461241944699" lon="11.944853552204155"><ele>18.666666666666664</ele><time>2026-04-03T08:36:37.001Z</time></trkpt><trkpt lat="45.53466157073887" lon="11.944600223775254"><ele>18.333333333333332</ele><time>2026-04-03T08:36:38.001Z</time></trkpt><trkpt lat="45.53470448847227" lon="11.944372870873995"><ele>18.0</ele><time>2026-04-03T08:36:39.001Z</time></trkpt><trkpt lat="45.5347405306282" lon="11.944159395908223"><ele>18.0</ele><time>2026-04-03T08:36:40.001Z</time></trkpt><trkpt lat="45.53477958091191" lon="11.943956519111028"><ele>18.0</ele><time>2026-04-03T08:36:41.001Z</time></trkpt><trkpt lat="45.53481891307077" lon="11.94376543237125"><ele>18.0</ele><time>2026-04-03T08:36:42.001Z</time></trkpt><trkpt lat="45.53486391546499" lon="11.943568876305331"><ele>18.0</ele><time>2026-04-03T08:36:43.001Z</time></trkpt><trkpt lat="45.53489341253307" lon="11.943367817181505"><ele>18.0</ele><time>2026-04-03T08:36:44.001Z</time></trkpt><trkpt lat="45.53493172252883" lon="11.94316170845319"><ele>18.0</ele><time>2026-04-03T08:36:45.001Z</time></trkpt><trkpt lat="45.53497010323597" lon="11.942950362925439"><ele>18.0</ele><time>2026-04-03T08:36:46.001Z</time></trkpt><trkpt lat="45.53501077439085" lon="11.94274600530416"><ele>18.333333333333332</ele><time>2026-04-03T08:36:47.001Z</time></trkpt><trkpt lat="45.535050618173834" lon="11.942522650879303"><ele>18.666666666666664</ele><time>2026-04-03T08:36:48.001Z</time></trkpt><trkpt lat="45.53509063140348" lon="11.942304374662637"><ele>19.0</ele><time>2026-04-03T08:36:49.001Z</time></trkpt><trkpt lat="45.5351278596679" lon="11.94209802641281"><ele>19.0</ele><time>2026-04-03T08:36:50.001Z</time></trkpt><trkpt lat="45.53516420979022" lon="11.941902128640281"><ele>19.0</ele><time>2026-04-03T08:36:51.001Z</time></trkpt><trkpt lat="45.535200216731184" lon="11.94171420306093"><ele>19.0</ele><time>2026-04-03T08:36:52.001Z</time></trkpt><trkpt lat="45.53523379382457" lon="11.941527770239185"><ele>19.0</ele><time>2026-04-03T08:36:53.001Z</time></trkpt><trkpt lat="45.535266980025035" lon="11.941343386803467"><ele>19.0</ele><time>2026-04-03T08:36:54.001Z</time></trkpt><trkpt lat="45.535300109818465" lon="11.941169408235746"><ele>19.0</ele><time>2026-04-03T08:36:55.001Z</time></trkpt><trkpt lat="45.53533232913503" lon="11.940989585948023"><ele>19.0</ele><time>2026-04-03T08:36:56.001Z</time></trkpt><trkpt lat="45.53536715210272" lon="11.940807976920665"><ele>19.0</ele><time>2026-04-03T08:36:57.001Z</time></trkpt><trkpt lat="45.53539649391358" lon="11.940619568930051"><ele>19.0</ele><time>2026-04-03T08:36:58.001Z</time></trkpt><trkpt lat="45.53542878246541" lon="11.940414402663409"><ele>19.0</ele><time>2026-04-03T08:36:59.001Z</time></trkpt><trkpt lat="45.53546824933008" lon="11.940202903333823"><ele>19.0</ele><time>2026-04-03T08:37:00.001Z</time></trkpt><trkpt lat="45.53551073884386" lon="11.94002046167796"><ele>19.0</ele><time>2026-04-03T08:37:01.001Z</time></trkpt><trkpt lat="45.53553534314077" lon="11.939847285819065"><ele>19.0</ele><time>2026-04-03T08:37:02.001Z</time></trkpt><trkpt lat="45.535573569602626" lon="11.939667986004569"><ele>19.0</ele><time>2026-04-03T08:37:03.001Z</time></trkpt><trkpt lat="45.53560316148149" lon="11.939474850907272"><ele>19.0</ele><time>2026-04-03T08:37:04.001Z</time></trkpt><trkpt lat="45.53563731447808" lon="11.939281672013683"><ele>19.0</ele><time>2026-04-03T08:37:05.001Z</time></trkpt><trkpt lat="45.53566787476059" lon="11.93911106733487"><ele>18.8</ele><time>2026-04-03T08:37:06.001Z</time></trkpt><trkpt lat="45.535696514393244" lon="11.938959645902072"><ele>18.599999999999998</ele><time>2026-04-03T08:37:07.001Z</time></trkpt><trkpt lat="45.53572275441063" lon="11.938834518568948"><ele>18.4</ele><time>2026-04-03T08:37:08.001Z</time></trkpt><trkpt lat="45.535745777060725" lon="11.938730380016818"><ele>18.2</ele><time>2026-04-03T08:37:09.001Z</time></trkpt><trkpt lat="45.53576835643402" lon="11.938611975237427"><ele>18.0</ele><time>2026-04-03T08:37:11.001Z</time></trkpt><trkpt lat="45.5357858379408" lon="11.9384899359064"><ele>18.0</ele><time>2026-04-03T08:37:13.001Z</time></trkpt><trkpt lat="45.53564192096336" lon="11.938398323668622"><ele>18.0</ele><time>2026-04-03T08:37:15.001Z</time></trkpt><trkpt lat="45.53555917187722" lon="11.938368785501252"><ele>18.0</ele><time>2026-04-03T08:37:16.001Z</time></trkpt><trkpt lat="45.5354658525212" lon="11.938320498768249"><ele>18.0</ele><time>2026-04-03T08:37:17.001Z</time></trkpt><trkpt lat="45.535343755218065" lon="11.93827302001888"><ele>18.0</ele><time>2026-04-03T08:37:18.001Z</time></trkpt><trkpt lat="45.53520814540122" lon="11.93822241781307"><ele>18.0</ele><time>2026-04-03T08:37:19.001Z</time></trkpt><trkpt lat="45.53506841930532" lon="11.938171273801812"><ele>18.0</ele><time>2026-04-03T08:37:20.001Z</time></trkpt><trkpt lat="45.53492008614097" lon="11.938118952227574"><ele>18.0</ele><time>2026-04-03T08:37:21.001Z</time></trkpt><trkpt lat="45.53475700093982" lon="11.938058009205948"><ele>18.0</ele><time>2026-04-03T08:37:22.001Z</time></trkpt><trkpt lat="45.53458320326006" lon="11.93798845023919"><ele>18.0</ele><time>2026-04-03T08:37:23.001Z</time></trkpt><trkpt lat="45.534409105324194" lon="11.937918771101087"><ele>18.0</ele><time>2026-04-03T08:37:24.001Z</time></trkpt><trkpt lat="45.5342269199575" lon="11.93784585513615"><ele>18.0</ele><time>2026-04-03T08:37:25.001Z</time></trkpt><trkpt lat="45.5340444030976" lon="11.937772806841798"><ele>18.0</ele><time>2026-04-03T08:37:26.001Z</time></trkpt><trkpt lat="45.53387893839257" lon="11.937710805650372"><ele>18.0</ele><time>2026-04-03T08:37:27.001Z</time></trkpt><trkpt lat="45.53371992482978" lon="11.937675299364349"><ele>18.0</ele><time>2026-04-03T08:37:28.001Z</time></trkpt><trkpt lat="45.5335808518077" lon="11.937599289745325"><ele>18.0</ele><time>2026-04-03T08:37:29.001Z</time></trkpt><trkpt lat="45.53344548552938" lon="11.937548913493107"><ele>18.0</ele><time>2026-04-03T08:37:30.001Z</time></trkpt><trkpt lat="45.533317478679585" lon="11.937501753048798"><ele>18.0</ele><time>2026-04-03T08:37:31.001Z</time></trkpt><trkpt lat="45.53320616642125" lon="11.937462026687129"><ele>18.0</ele><time>2026-04-03T08:37:32.001Z</time></trkpt><trkpt lat="45.533111339990775" lon="11.937428349997957"><ele>18.0</ele><time>2026-04-03T08:37:33Z</time></trkpt><trkpt lat="45.53302341454354" lon="11.937399353524098"><ele>18.0</ele><time>2026-04-03T08:37:34Z</time></trkpt><trkpt lat="45.53292759613358" lon="11.937385761316515"><ele>18.0</ele><time>2026-04-03T08:37:35Z</time></trkpt><trkpt lat="45.532805214927976" lon="11.937346108238929"><ele>18.0</ele><time>2026-04-03T08:37:36Z</time></trkpt><trkpt lat="45.53266825783676" lon="11.937314743876906"><ele>17.666666666666668</ele><time>2026-04-03T08:37:37Z</time></trkpt><trkpt lat="45.53252195810889" lon="11.937282502868674"><ele>17.333333333333336</ele><time>2026-04-03T08:37:38Z</time></trkpt><trkpt lat="45.53236398215917" lon="11.9372455944861"><ele>17.0</ele><time>2026-04-03T08:37:39Z</time></trkpt><trkpt lat="45.53219847344808" lon="11.937199501341446"><ele>16.666666666666668</ele><time>2026-04-03T08:37:40Z</time></trkpt><trkpt lat="45.532030550602904" lon="11.937149283247285"><ele>16.333333333333332</ele><time>2026-04-03T08:37:41Z</time></trkpt><trkpt lat="45.53185856935266" lon="11.937065865431643"><ele>16.0</ele><time>2026-04-03T08:37:42Z</time></trkpt><trkpt lat="45.531677443898744" lon="11.936991534768424"><ele>16.0</ele><time>2026-04-03T08:37:43Z</time></trkpt><trkpt lat="45.531492403006425" lon="11.936912108463554"><ele>16.0</ele><time>2026-04-03T08:37:44Z</time></trkpt><trkpt lat="45.53130449684419" lon="11.936825388477994"><ele>16.0</ele><time>2026-04-03T08:37:45Z</time></trkpt><trkpt lat="45.531110730074616" lon="11.936731500290882"><ele>16.333333333333332</ele><time>2026-04-03T08:37:46Z</time></trkpt><trkpt lat="45.530921705575466" lon="11.936639922530897"><ele>16.666666666666668</ele><time>2026-04-03T08:37:47Z</time></trkpt><trkpt lat="45.53072842307522" lon="11.936546281838076"><ele>17.0</ele><time>2026-04-03T08:37:48Z</time></trkpt><trkpt lat="45.53052964080203" lon="11.936452902352018"><ele>17.333333333333336</ele><time>2026-04-03T08:37:49Z</time></trkpt><trkpt lat="45.530328036601595" lon="11.936363935386911"><ele>17.666666666666668</ele><time>2026-04-03T08:37:50Z</time></trkpt><trkpt lat="45.53013623325806" lon="11.936289712044307"><ele>18.0</ele><time>2026-04-03T08:37:51Z</time></trkpt><trkpt lat="45.52996714343653" lon="11.936227173975984"><ele>18.0</ele><time>2026-04-03T08:37:52Z</time></trkpt><trkpt lat="45.52980308948228" lon="11.936166496489573"><ele>18.0</ele><time>2026-04-03T08:37:53Z</time></trkpt><trkpt lat="45.52965580149002" lon="11.936112020105119"><ele>18.0</ele><time>2026-04-03T08:37:54Z</time></trkpt><trkpt lat="45.52951747145639" lon="11.936060265522718"><ele>17.75</ele><time>2026-04-03T08:37:55Z</time></trkpt><trkpt lat="45.52939068698219" lon="11.9360119925711"><ele>17.5</ele><time>2026-04-03T08:37:56Z</time></trkpt><trkpt lat="45.52927440748341" lon="11.935966841156102"><ele>17.25</ele><time>2026-04-03T08:37:57Z</time></trkpt><trkpt lat="45.52916556734703" lon="11.935924257632804"><ele>17.0</ele><time>2026-04-03T08:37:58Z</time></trkpt><trkpt lat="45.5290627479585" lon="11.9358839752372"><ele>17.0</ele><time>2026-04-03T08:37:59Z</time></trkpt><trkpt lat="45.528970010080805" lon="11.935847324126762"><ele>17.0</ele><time>2026-04-03T08:38:00Z</time></trkpt><trkpt lat="45.52888585627901" lon="11.935814065563605"><ele>17.0</ele><time>2026-04-03T08:38:01Z</time></trkpt><trkpt lat="45.52880428861765" lon="11.93578182906269"><ele>17.0</ele><time>2026-04-03T08:38:02Z</time></trkpt><trkpt lat="45.528710193306075" lon="11.935743695442305"><ele>17.0</ele><time>2026-04-03T08:38:03Z</time></trkpt><trkpt lat="45.52860630582644" lon="11.93570153007929"><ele>17.25</ele><time>2026-04-03T08:38:04Z</time></trkpt><trkpt lat="45.528488151892546" lon="11.935653574316733"><ele>17.5</ele><time>2026-04-03T08:38:05Z</time></trkpt><trkpt lat="45.52835866484247" lon="11.935601407803981"><ele>17.75</ele><time>2026-04-03T08:38:06Z</time></trkpt><trkpt lat="45.52821754343936" lon="11.935544644799956"><ele>18.0</ele><time>2026-04-03T08:38:07Z</time></trkpt><trkpt lat="45.52806901630842" lon="11.935485227368124"><ele>18.0</ele><time>2026-04-03T08:38:08Z</time></trkpt><trkpt lat="45.52791347076447" lon="11.935423033557884"><ele>18.0</ele><time>2026-04-03T08:38:09Z</time></trkpt><trkpt lat="45.52774868575518" lon="11.935356785752386"><ele>18.0</ele><time>2026-04-03T08:38:10Z</time></trkpt><trkpt lat="45.52757930666747" lon="11.935288236837925"><ele>18.0</ele><time>2026-04-03T08:38:11Z</time></trkpt><trkpt lat="45.5274014120196" lon="11.93521671022668"><ele>18.0</ele><time>2026-04-03T08:38:12Z</time></trkpt><trkpt lat="45.527213533871596" lon="11.935143583997592"><ele>18.0</ele><time>2026-04-03T08:38:13Z</time></trkpt><trkpt lat="45.527018867551675" lon="11.935071128885937"><ele>17.333333333333332</ele><time>2026-04-03T08:38:14Z</time></trkpt><trkpt lat="45.52682078138634" lon="11.93500014534417"><ele>16.666666666666664</ele><time>2026-04-03T08:38:15Z</time></trkpt><trkpt lat="45.5266208039662" lon="11.934929465367196"><ele>16.0</ele><time>2026-04-03T08:38:16Z</time></trkpt><trkpt lat="45.5264230147477" lon="11.934860217259937"><ele>16.0</ele><time>2026-04-03T08:38:17Z</time></trkpt><trkpt lat="45.52624235170207" lon="11.934796965201116"><ele>16.0</ele><time>2026-04-03T08:38:18Z</time></trkpt><trkpt lat="45.52607175567325" lon="11.934737237724098"><ele>16.0</ele><time>2026-04-03T08:38:19Z</time></trkpt><trkpt lat="45.52591276259961" lon="11.93468157255557"><ele>15.666666666666666</ele><time>2026-04-03T08:38:20Z</time></trkpt><trkpt lat="45.52575230875523" lon="11.934625029295255"><ele>15.333333333333332</ele><time>2026-04-03T08:38:21Z</time></trkpt><trkpt lat="45.525606354198956" lon="11.934573248117545"><ele>15.0</ele><time>2026-04-03T08:38:22Z</time></trkpt><trkpt lat="45.52546954247846" lon="11.93452471059751"><ele>15.5</ele><time>2026-04-03T08:38:23Z</time></trkpt><trkpt lat="45.525342556148" lon="11.934479658888307"><ele>16.0</ele><time>2026-04-03T08:38:24Z</time></trkpt><trkpt lat="45.52522091550955" lon="11.934436503707548"><ele>16.5</ele><time>2026-04-03T08:38:25Z</time></trkpt><trkpt lat="45.52510975048844" lon="11.934397065064285"><ele>17.0</ele><time>2026-04-03T08:38:26Z</time></trkpt><trkpt lat="45.525004735344915" lon="11.934359810140043"><ele>17.0</ele><time>2026-04-03T08:38:27Z</time></trkpt><trkpt lat="45.52490682076843" lon="11.934325072396438"><ele>17.0</ele><time>2026-04-03T08:38:28.001Z</time></trkpt><trkpt lat="45.524810715207565" lon="11.934291692693673"><ele>17.0</ele><time>2026-04-03T08:38:29.001Z</time></trkpt><trkpt lat="45.52472354340574" lon="11.934261432784869"><ele>17.0</ele><time>2026-04-03T08:38:30.001Z</time></trkpt><trkpt lat="45.524645301055465" lon="11.934234272561147"><ele>17.0</ele><time>2026-04-03T08:38:31.001Z</time></trkpt><trkpt lat="45.52457215372556" lon="11.934208880946834"><ele>17.0</ele><time>2026-04-03T08:38:32.001Z</time></trkpt><trkpt lat="45.52449783382882" lon="11.93420416630647"><ele>16.666666666666668</ele><time>2026-04-03T08:38:33.001Z</time></trkpt><trkpt lat="45.5244332750145" lon="11.934169646785714"><ele>16.333333333333336</ele><time>2026-04-03T08:38:34.001Z</time></trkpt><trkpt lat="45.5243144542045" lon="11.934132494116799"><ele>16.0</ele><time>2026-04-03T08:38:36.001Z</time></trkpt><trkpt lat="45.52420912553994" lon="11.93409763830031"><ele>15.666666666666668</ele><time>2026-04-03T08:38:38.001Z</time></trkpt><trkpt lat="45.524130271670806" lon="11.93406639036983"><ele>15.333333333333334</ele><time>2026-04-03T08:38:40.001Z</time></trkpt><trkpt lat="45.52406482998476" lon="11.934051944926628"><ele>15.0</ele><time>2026-04-03T08:38:43.001Z</time></trkpt><trkpt lat="45.5239701139677" lon="11.93399989506719"><ele>15.0</ele><time>2026-04-03T08:38:51.001Z</time></trkpt><trkpt lat="45.523893391697044" lon="11.93397326248104"><ele>15.0</ele><time>2026-04-03T08:38:52.001Z</time></trkpt><trkpt lat="45.52379309550778" lon="11.933938446690211"><ele>15.0</ele><time>2026-04-03T08:38:53.001Z</time></trkpt><trkpt lat="45.523678419023994" lon="11.93389863907422"><ele>15.0</ele><time>2026-04-03T08:38:54.001Z</time></trkpt><trkpt lat="45.523546599332356" lon="11.933852880567313"><ele>15.0</ele><time>2026-04-03T08:38:55.001Z</time></trkpt><trkpt lat="45.523404498409064" lon="11.93380355313398"><ele>15.333333333333332</ele><time>2026-04-03T08:38:56.001Z</time></trkpt><trkpt lat="45.52324741793222" lon="11.93374896178248"><ele>15.666666666666666</ele><time>2026-04-03T08:38:57.001Z</time></trkpt><trkpt lat="45.52308142327828" lon="11.933690857775806"><ele>16.0</ele><time>2026-04-03T08:38:58.001Z</time></trkpt><trkpt lat="45.52290508086507" lon="11.933628976805693"><ele>16.0</ele><time>2026-04-03T08:38:59.001Z</time></trkpt><trkpt lat="45.52272453168601" lon="11.933565619660051"><ele>16.0</ele><time>2026-04-03T08:39:00.001Z</time></trkpt><trkpt lat="45.52253536388452" lon="11.933499238081927"><ele>16.0</ele><time>2026-04-03T08:39:01.001Z</time></trkpt><trkpt lat="45.522341673254196" lon="11.933431269420403"><ele>16.0</ele><time>2026-04-03T08:39:02.001Z</time></trkpt><trkpt lat="45.5221407953732" lon="11.933361076256569"><ele>16.0</ele><time>2026-04-03T08:39:03.001Z</time></trkpt><trkpt lat="45.52193706965519" lon="11.933290213322175"><ele>16.0</ele><time>2026-04-03T08:39:04.001Z</time></trkpt><trkpt lat="45.52173106122088" lon="11.933218556286512"><ele>15.666666666666666</ele><time>2026-04-03T08:39:05.001Z</time></trkpt><trkpt lat="45.521522072080174" lon="11.933148384279969"><ele>15.333333333333332</ele><time>2026-04-03T08:39:06.001Z</time></trkpt><trkpt lat="45.52130676293985" lon="11.933076025375358"><ele>15.0</ele><time>2026-04-03T08:39:07.001Z</time></trkpt><trkpt lat="45.52108862740588" lon="11.93300524157712"><ele>14.5</ele><time>2026-04-03T08:39:08.001Z</time></trkpt><trkpt lat="45.520868005494115" lon="11.932940515875902"><ele>14.0</ele><time>2026-04-03T08:39:09.001Z</time></trkpt><trkpt lat="45.520643829401486" lon="11.932875808064603"><ele>14.0</ele><time>2026-04-03T08:39:10.001Z</time></trkpt><trkpt lat="45.520422931941134" lon="11.932811658247298"><ele>14.0</ele><time>2026-04-03T08:39:11.001Z</time></trkpt><trkpt lat="45.520223259468565" lon="11.932754911198908"><ele>14.0</ele><time>2026-04-03T08:39:12.001Z</time></trkpt><trkpt lat="45.520030428037664" lon="11.932702410768941"><ele>14.333333333333334</ele><time>2026-04-03T08:39:13.001Z</time></trkpt><trkpt lat="45.51984671207036" lon="11.932652870918295"><ele>14.666666666666668</ele><time>2026-04-03T08:39:14.001Z</time></trkpt><trkpt lat="45.5196782607037" lon="11.932607517130464"><ele>15.0</ele><time>2026-04-03T08:39:15.001Z</time></trkpt><trkpt lat="45.51951696389511" lon="11.932559304783721"><ele>15.0</ele><time>2026-04-03T08:39:16.001Z</time></trkpt><trkpt lat="45.51936642782656" lon="11.932509015375897"><ele>15.0</ele><time>2026-04-03T08:39:17.001Z</time></trkpt><trkpt lat="45.519236004120685" lon="11.932463153435707"><ele>15.0</ele><time>2026-04-03T08:39:18.001Z</time></trkpt><trkpt lat="45.5191064748147" lon="11.93241760574517"><ele>15.0</ele><time>2026-04-03T08:39:19.001Z</time></trkpt><trkpt lat="45.51897998851488" lon="11.932365402819583"><ele>15.0</ele><time>2026-04-03T08:39:20.001Z</time></trkpt><trkpt lat="45.518849974318265" lon="11.932306823142055"><ele>15.0</ele><time>2026-04-03T08:39:21.001Z</time></trkpt><trkpt lat="45.518717059964104" lon="11.932250067076309"><ele>15.0</ele><time>2026-04-03T08:39:22.001Z</time></trkpt><trkpt lat="45.5185811081071" lon="11.932191152615717"><ele>15.0</ele><time>2026-04-03T08:39:23.001Z</time></trkpt><trkpt lat="45.51844353560239" lon="11.932130182618002"><ele>15.0</ele><time>2026-04-03T08:39:24.001Z</time></trkpt><trkpt lat="45.51830281419365" lon="11.932067817057986"><ele>15.0</ele><time>2026-04-03T08:39:25.001Z</time></trkpt><trkpt lat="45.51816060307215" lon="11.932005992497235"><ele>15.0</ele><time>2026-04-03T08:39:26.001Z</time></trkpt><trkpt lat="45.51801932890829" lon="11.931946246410615"><ele>15.0</ele><time>2026-04-03T08:39:27.001Z</time></trkpt><trkpt lat="45.51787267942154" lon="11.931901968209175"><ele>15.0</ele><time>2026-04-03T08:39:28.001Z</time></trkpt><trkpt lat="45.51772587533478" lon="11.931827393480706"><ele>15.0</ele><time>2026-04-03T08:39:29.001Z</time></trkpt><trkpt lat="45.51758018584727" lon="11.931763554304338"><ele>15.0</ele><time>2026-04-03T08:39:30.001Z</time></trkpt><trkpt lat="45.517442377632136" lon="11.931709047844054"><ele>15.0</ele><time>2026-04-03T08:39:31.001Z</time></trkpt><trkpt lat="45.517319884331414" lon="11.931650465016867"><ele>15.0</ele><time>2026-04-03T08:39:32.001Z</time></trkpt><trkpt lat="45.51720453573705" lon="11.931601518420779"><ele>15.0</ele><time>2026-04-03T08:39:33.001Z</time></trkpt><trkpt lat="45.517081691984984" lon="11.931549896738385"><ele>15.0</ele><time>2026-04-03T08:39:34.001Z</time></trkpt><trkpt lat="45.516948948328626" lon="11.931502994765118"><ele>15.0</ele><time>2026-04-03T08:39:35.001Z</time></trkpt><trkpt lat="45.51681017803619" lon="11.931454665757718"><ele>15.0</ele><time>2026-04-03T08:39:36.001Z</time></trkpt><trkpt lat="45.51666794011126" lon="11.931403630228129"><ele>15.0</ele><time>2026-04-03T08:39:37.001Z</time></trkpt><trkpt lat="45.51652304142308" lon="11.931342324440292"><ele>15.0</ele><time>2026-04-03T08:39:38.001Z</time></trkpt><trkpt lat="45.516367389041015" lon="11.931287013535997"><ele>15.0</ele><time>2026-04-03T08:39:39Z</time></trkpt><trkpt lat="45.51620836924047" lon="11.931220287338158"><ele>15.0</ele><time>2026-04-03T08:39:40Z</time></trkpt><trkpt lat="45.516050888312314" lon="11.931159481068747"><ele>15.0</ele><time>2026-04-03T08:39:41Z</time></trkpt><trkpt lat="45.5158887539679" lon="11.93109443764339"><ele>15.0</ele><time>2026-04-03T08:39:42Z</time></trkpt><trkpt lat="45.515724153943424" lon="11.931034597310857"><ele>15.0</ele><time>2026-04-03T08:39:43Z</time></trkpt><trkpt lat="45.515558262572185" lon="11.930972828807185"><ele>15.0</ele><time>2026-04-03T08:39:44Z</time></trkpt><trkpt lat="45.515398850382105" lon="11.93088787727175"><ele>15.25</ele><time>2026-04-03T08:39:45Z</time></trkpt><trkpt lat="45.515254052188354" lon="11.930832744056477"><ele>15.5</ele><time>2026-04-03T08:39:46Z</time></trkpt><trkpt lat="45.51512322319407" lon="11.930781861317596"><ele>15.75</ele><time>2026-04-03T08:39:47Z</time></trkpt><trkpt lat="45.51499312928529" lon="11.93073071064537"><ele>16.0</ele><time>2026-04-03T08:39:48Z</time></trkpt><trkpt lat="45.514868514069605" lon="11.93068171403234"><ele>16.0</ele><time>2026-04-03T08:39:49Z</time></trkpt><trkpt lat="45.51475116817962" lon="11.930635575613236"><ele>16.0</ele><time>2026-04-03T08:39:50Z</time></trkpt><trkpt lat="45.51464165959594" lon="11.930592676263405"><ele>16.0</ele><time>2026-04-03T08:39:51Z</time></trkpt><trkpt lat="45.51454683178676" lon="11.930557518605799"><ele>16.0</ele><time>2026-04-03T08:39:52Z</time></trkpt><trkpt lat="45.514453679710364" lon="11.930522969173891"><ele>16.0</ele><time>2026-04-03T08:39:53Z</time></trkpt><trkpt lat="45.51436585590669" lon="11.930517529455065"><ele>15.5</ele><time>2026-04-03T08:39:54Z</time></trkpt><trkpt lat="45.51426301432956" lon="11.93048319076681"><ele>15.0</ele><time>2026-04-03T08:39:55Z</time></trkpt><trkpt lat="45.51414941233146" lon="11.930438765442988"><ele>14.5</ele><time>2026-04-03T08:39:56Z</time></trkpt><trkpt lat="45.51401859773164" lon="11.930379615809034"><ele>14.0</ele><time>2026-04-03T08:39:57Z</time></trkpt><trkpt lat="45.51388372723702" lon="11.930286720123208"><ele>14.666666666666668</ele><time>2026-04-03T08:39:58Z</time></trkpt><trkpt lat="45.513721958829585" lon="11.93024819812182"><ele>15.333333333333332</ele><time>2026-04-03T08:39:59Z</time></trkpt><trkpt lat="45.513559616316115" lon="11.93018599149464"><ele>16.0</ele><time>2026-04-03T08:40:00Z</time></trkpt><trkpt lat="45.51342038536627" lon="11.930108113787398"><ele>16.0</ele><time>2026-04-03T08:40:01Z</time></trkpt><trkpt lat="45.513290863298025" lon="11.930056896043546"><ele>16.0</ele><time>2026-04-03T08:40:02Z</time></trkpt><trkpt lat="45.51317426035698" lon="11.930002211130997"><ele>16.0</ele><time>2026-04-03T08:40:03Z</time></trkpt><trkpt lat="45.51307425851094" lon="11.92993743375059"><ele>16.0</ele><time>2026-04-03T08:40:04Z</time></trkpt><trkpt lat="45.51297044942214" lon="11.929874462419296"><ele>16.0</ele><time>2026-04-03T08:40:05Z</time></trkpt><trkpt lat="45.512845558078936" lon="11.929854660560558"><ele>16.0</ele><time>2026-04-03T08:40:06Z</time></trkpt><trkpt lat="45.512723577636066" lon="11.92980405390439"><ele>16.0</ele><time>2026-04-03T08:40:07Z</time></trkpt><trkpt lat="45.512592880897095" lon="11.929771945472899"><ele>16.0</ele><time>2026-04-03T08:40:08Z</time></trkpt><trkpt lat="45.51244247682235" lon="11.929734995530348"><ele>16.0</ele><time>2026-04-03T08:40:09Z</time></trkpt><trkpt lat="45.512288066283624" lon="11.929692079764624"><ele>16.0</ele><time>2026-04-03T08:40:10Z</time></trkpt><trkpt lat="45.51213115576029" lon="11.929643777353725"><ele>16.0</ele><time>2026-04-03T08:40:11Z</time></trkpt><trkpt lat="45.51196918876256" lon="11.92959330560674"><ele>16.25</ele><time>2026-04-03T08:40:12Z</time></trkpt><trkpt lat="45.511824439727725" lon="11.929548199295967"><ele>16.5</ele><time>2026-04-03T08:40:13Z</time></trkpt><trkpt lat="45.51169055540098" lon="11.929502213368227"><ele>16.75</ele><time>2026-04-03T08:40:14Z</time></trkpt><trkpt lat="45.5115670328474" lon="11.929458558228259"><ele>17.0</ele><time>2026-04-03T08:40:15Z</time></trkpt><trkpt lat="45.511450596952216" lon="11.929416302263641"><ele>17.0</ele><time>2026-04-03T08:40:16Z</time></trkpt><trkpt lat="45.5113429432339" lon="11.929406070018786"><ele>17.0</ele><time>2026-04-03T08:40:17Z</time></trkpt><trkpt lat="45.51125024013545" lon="11.929372220249562"><ele>17.0</ele><time>2026-04-03T08:40:18Z</time></trkpt><trkpt lat="45.51116374050273" lon="11.929322672425052"><ele>17.0</ele><time>2026-04-03T08:40:19Z</time></trkpt><trkpt lat="45.51108917598518" lon="11.929264691998235"><ele>17.0</ele><time>2026-04-03T08:40:20Z</time></trkpt><trkpt lat="45.511033831288174" lon="11.929204916386151"><ele>16.8</ele><time>2026-04-03T08:40:21Z</time></trkpt><trkpt lat="45.51099893303972" lon="11.92905087696052"><ele>16.6</ele><time>2026-04-03T08:40:23.001Z</time></trkpt><trkpt lat="45.51100397512932" lon="11.928941920243444"><ele>16.400000000000002</ele><time>2026-04-03T08:40:29.001Z</time></trkpt><trkpt lat="45.511029031492455" lon="11.928774620674108"><ele>16.2</ele><time>2026-04-03T08:40:31.001Z</time></trkpt><trkpt lat="45.51105784329786" lon="11.928629926149135"><ele>16.0</ele><time>2026-04-03T08:40:32.001Z</time></trkpt><trkpt lat="45.51108275794516" lon="11.928498880181717"><ele>15.75</ele><time>2026-04-03T08:40:33.001Z</time></trkpt><trkpt lat="45.51111065337478" lon="11.928349241029432"><ele>15.5</ele><time>2026-04-03T08:40:34.001Z</time></trkpt><trkpt lat="45.51113874859267" lon="11.928178853816314"><ele>15.25</ele><time>2026-04-03T08:40:35.001Z</time></trkpt><trkpt lat="45.51116930548558" lon="11.927994038452677"><ele>15.0</ele><time>2026-04-03T08:40:36.001Z</time></trkpt><trkpt lat="45.51120273136388" lon="11.927798182899629"><ele>15.0</ele><time>2026-04-03T08:40:37.001Z</time></trkpt><trkpt lat="45.51123976579482" lon="11.927587308367468"><ele>15.0</ele><time>2026-04-03T08:40:38.001Z</time></trkpt><trkpt lat="45.511280156357884" lon="11.9273666468871"><ele>15.0</ele><time>2026-04-03T08:40:39.001Z</time></trkpt><trkpt lat="45.51132292132346" lon="11.927137850324307"><ele>15.0</ele><time>2026-04-03T08:40:40.001Z</time></trkpt><trkpt lat="45.51136538386774" lon="11.926895355875194"><ele>15.0</ele><time>2026-04-03T08:40:41.001Z</time></trkpt><trkpt lat="45.51141276668261" lon="11.926646537161501"><ele>15.0</ele><time>2026-04-03T08:40:42.001Z</time></trkpt><trkpt lat="45.51146043643591" lon="11.92638714426608"><ele>15.0</ele><time>2026-04-03T08:40:43.001Z</time></trkpt><trkpt lat="45.51150802184683" lon="11.926124150002641"><ele>15.0</ele><time>2026-04-03T08:40:44.001Z</time></trkpt><trkpt lat="45.51155666024278" lon="11.925857518602385"><ele>15.0</ele><time>2026-04-03T08:40:45.001Z</time></trkpt><trkpt lat="45.51160800593197" lon="11.925586214393281"><ele>15.333333333333332</ele><time>2026-04-03T08:40:46.001Z</time></trkpt><trkpt lat="45.51165637581719" lon="11.925314071011467"><ele>15.666666666666666</ele><time>2026-04-03T08:40:47.001Z</time></trkpt><trkpt lat="45.51170282524532" lon="11.92507853638754"><ele>16.0</ele><time>2026-04-03T08:40:48.001Z</time></trkpt><trkpt lat="45.51174421150297" lon="11.924849679337374"><ele>15.333333333333332</ele><time>2026-04-03T08:40:49.001Z</time></trkpt><trkpt lat="45.511785201503265" lon="11.924629404289334"><ele>14.666666666666668</ele><time>2026-04-03T08:40:50.001Z</time></trkpt><trkpt lat="45.51182533288358" lon="11.924404267824741"><ele>14.0</ele><time>2026-04-03T08:40:51.001Z</time></trkpt><trkpt lat="45.51186946668777" lon="11.924179585651686"><ele>14.0</ele><time>2026-04-03T08:40:52.001Z</time></trkpt><trkpt lat="45.51190955687429" lon="11.923955973179737"><ele>14.0</ele><time>2026-04-03T08:40:53.001Z</time></trkpt><trkpt lat="45.5119501251247" lon="11.9237291298492"><ele>14.0</ele><time>2026-04-03T08:40:54.001Z</time></trkpt><trkpt lat="45.51199325319992" lon="11.923494891828783"><ele>14.333333333333334</ele><time>2026-04-03T08:40:55.001Z</time></trkpt><trkpt lat="45.51203772264704" lon="11.923256589762072"><ele>14.666666666666668</ele><time>2026-04-03T08:40:56.001Z</time></trkpt><trkpt lat="45.512079721398635" lon="11.923018530917691"><ele>15.0</ele><time>2026-04-03T08:40:57.001Z</time></trkpt><trkpt lat="45.51212353398976" lon="11.922778429160322"><ele>15.25</ele><time>2026-04-03T08:40:58.001Z</time></trkpt><trkpt lat="45.51216209452496" lon="11.92255781916183"><ele>15.5</ele><time>2026-04-03T08:40:59.001Z</time></trkpt><trkpt lat="45.512201743563786" lon="11.92235224013961"><ele>15.75</ele><time>2026-04-03T08:41:00.001Z</time></trkpt><trkpt lat="45.51223661664006" lon="11.922159355251173"><ele>16.0</ele><time>2026-04-03T08:41:01.001Z</time></trkpt><trkpt lat="45.512268069865996" lon="11.921976680799407"><ele>16.0</ele><time>2026-04-03T08:41:02.001Z</time></trkpt><trkpt lat="45.512297805793594" lon="11.921806497292323"><ele>16.0</ele><time>2026-04-03T08:41:03.001Z</time></trkpt><trkpt lat="45.51232351964341" lon="11.921643198365546"><ele>16.0</ele><time>2026-04-03T08:41:04.001Z</time></trkpt><trkpt lat="45.51235009079889" lon="11.921493247599244"><ele>16.0</ele><time>2026-04-03T08:41:05.001Z</time></trkpt><trkpt lat="45.512370956306285" lon="11.92135750195773"><ele>16.0</ele><time>2026-04-03T08:41:06.001Z</time></trkpt><trkpt lat="45.512385112717766" lon="11.921237192360438"><ele>15.999999999999998</ele><time>2026-04-03T08:41:07.001Z</time></trkpt><trkpt lat="45.512392975500234" lon="11.921122933952004"><ele>16.0</ele><time>2026-04-03T08:41:08.001Z</time></trkpt><trkpt lat="45.512403657488434" lon="11.921030410810268"><ele>16.0</ele><time>2026-04-03T08:41:09.001Z</time></trkpt><trkpt lat="45.51242214916753" lon="11.920931235494411"><ele>16.0</ele><time>2026-04-03T08:41:10.001Z</time></trkpt><trkpt lat="45.51244156978708" lon="11.920815903790139"><ele>15.999999999999998</ele><time>2026-04-03T08:41:11.001Z</time></trkpt><trkpt lat="45.512465289799515" lon="11.920698212612717"><ele>16.0</ele><time>2026-04-03T08:41:12.001Z</time></trkpt><trkpt lat="45.512480969363324" lon="11.920603075038695"><ele>15.75</ele><time>2026-04-03T08:41:13.001Z</time></trkpt><trkpt lat="45.51252218368312" lon="11.92046409653338"><ele>15.5</ele><time>2026-04-03T08:41:15.001Z</time></trkpt><trkpt lat="45.512333687422746" lon="11.92031682942376"><ele>15.25</ele><time>2026-04-03T08:41:17.001Z</time></trkpt><trkpt lat="45.51224104680867" lon="11.920285953715267"><ele>15.0</ele><time>2026-04-03T08:41:18.001Z</time></trkpt><trkpt lat="45.512126050621255" lon="11.920261667225208"><ele>15.25</ele><time>2026-04-03T08:41:19.001Z</time></trkpt><trkpt lat="45.512009262021415" lon="11.920196637049992"><ele>15.5</ele><time>2026-04-03T08:41:20.001Z</time></trkpt><trkpt lat="45.51187817698483" lon="11.920148349106801"><ele>15.75</ele><time>2026-04-03T08:41:21.001Z</time></trkpt><trkpt lat="45.511737609827705" lon="11.920095338087528"><ele>16.0</ele><time>2026-04-03T08:41:22.001Z</time></trkpt><trkpt lat="45.511587249536916" lon="11.920038485351478"><ele>16.0</ele><time>2026-04-03T08:41:23.001Z</time></trkpt><trkpt lat="45.51142648409704" lon="11.919977698366102"><ele>16.0</ele><time>2026-04-03T08:41:24.001Z</time></trkpt><trkpt lat="45.51125937078551" lon="11.91991451115686"><ele>16.0</ele><time>2026-04-03T08:41:25.001Z</time></trkpt><trkpt lat="45.51108915895291" lon="11.91985015238006"><ele>16.0</ele><time>2026-04-03T08:41:26.001Z</time></trkpt><trkpt lat="45.510909993899496" lon="11.91978240830611"><ele>16.0</ele><time>2026-04-03T08:41:27.001Z</time></trkpt><trkpt lat="45.51073741288437" lon="11.919717153721571"><ele>16.0</ele><time>2026-04-03T08:41:28.001Z</time></trkpt><trkpt lat="45.510584016469615" lon="11.919658764911775"><ele>16.0</ele><time>2026-04-03T08:41:29.001Z</time></trkpt><trkpt lat="45.5104334407621" lon="11.919601259381906"><ele>16.0</ele><time>2026-04-03T08:41:30.001Z</time></trkpt><trkpt lat="45.51028511754873" lon="11.919545484032726"><ele>16.0</ele><time>2026-04-03T08:41:31.001Z</time></trkpt><trkpt lat="45.51013219446536" lon="11.919508081254321"><ele>15.333333333333332</ele><time>2026-04-03T08:41:32.001Z</time></trkpt><trkpt lat="45.50998058099896" lon="11.919454392136865"><ele>14.666666666666668</ele><time>2026-04-03T08:41:33.001Z</time></trkpt><trkpt lat="45.50982866267912" lon="11.91937400652655"><ele>14.0</ele><time>2026-04-03T08:41:34.001Z</time></trkpt><trkpt lat="45.50968189900396" lon="11.91934328386172"><ele>14.0</ele><time>2026-04-03T08:41:35.001Z</time></trkpt><trkpt lat="45.509545359293654" lon="11.919292315916229"><ele>14.0</ele><time>2026-04-03T08:41:36.001Z</time></trkpt><trkpt lat="45.50941888731207" lon="11.919231505504188"><ele>14.0</ele><time>2026-04-03T08:41:37.001Z</time></trkpt><trkpt lat="45.509284548867555" lon="11.919187765598656"><ele>14.0</ele><time>2026-04-03T08:41:38.001Z</time></trkpt><trkpt lat="45.50914988862935" lon="11.919137987796848"><ele>14.0</ele><time>2026-04-03T08:41:39.001Z</time></trkpt><trkpt lat="45.50901143389849" lon="11.919088482502982"><ele>14.0</ele><time>2026-04-03T08:41:40.001Z</time></trkpt><trkpt lat="45.508873513863165" lon="11.919038260104665"><ele>14.0</ele><time>2026-04-03T08:41:41.001Z</time></trkpt><trkpt lat="45.50873390532455" lon="11.918984018356618"><ele>14.0</ele><time>2026-04-03T08:41:42.001Z</time></trkpt><trkpt lat="45.50859219705551" lon="11.918932373414483"><ele>14.0</ele><time>2026-04-03T08:41:43.001Z</time></trkpt><trkpt lat="45.50845573997985" lon="11.918878103245072"><ele>14.0</ele><time>2026-04-03T08:41:44.001Z</time></trkpt><trkpt lat="45.50834153056533" lon="11.918840746931728"><ele>14.0</ele><time>2026-04-03T08:41:45Z</time></trkpt><trkpt lat="45.50823833731102" lon="11.918778752118598"><ele>14.0</ele><time>2026-04-03T08:41:46Z</time></trkpt><trkpt lat="45.508130482193" lon="11.91873810133491"><ele>14.0</ele><time>2026-04-03T08:41:47Z</time></trkpt><trkpt lat="45.50801621844905" lon="11.918695035144102"><ele>14.0</ele><time>2026-04-03T08:41:48Z</time></trkpt><trkpt lat="45.50789563845099" lon="11.918650926444808"><ele>14.0</ele><time>2026-04-03T08:41:49Z</time></trkpt><trkpt lat="45.507772835209195" lon="11.918606262950338"><ele>14.0</ele><time>2026-04-03T08:41:50Z</time></trkpt><trkpt lat="45.50763095569109" lon="11.918554096992125"><ele>14.0</ele><time>2026-04-03T08:41:51Z</time></trkpt><trkpt lat="45.50748474812086" lon="11.918499869008409"><ele>14.0</ele><time>2026-04-03T08:41:52Z</time></trkpt><trkpt lat="45.507335231276855" lon="11.918444413659893"><ele>14.0</ele><time>2026-04-03T08:41:53Z</time></trkpt><trkpt lat="45.50720088717686" lon="11.918394585789187"><ele>14.0</ele><time>2026-04-03T08:41:54Z</time></trkpt><trkpt lat="45.50707940179438" lon="11.918349527233493"><ele>14.2</ele><time>2026-04-03T08:41:55Z</time></trkpt><trkpt lat="45.5069647144873" lon="11.918306989944785"><ele>14.399999999999999</ele><time>2026-04-03T08:41:56Z</time></trkpt><trkpt lat="45.50686000781022" lon="11.918268154476662"><ele>14.6</ele><time>2026-04-03T08:41:57Z</time></trkpt><trkpt lat="45.5067644792138" lon="11.91823321021638"><ele>14.8</ele><time>2026-04-03T08:41:58Z</time></trkpt><trkpt lat="45.50667879291814" lon="11.91820199727178"><ele>15.0</ele><time>2026-04-03T08:41:59Z</time></trkpt><trkpt lat="45.5065993907373" lon="11.918173073449681"><ele>15.0</ele><time>2026-04-03T08:42:00Z</time></trkpt><trkpt lat="45.506536696997344" lon="11.918149755733918"><ele>15.0</ele><time>2026-04-03T08:42:01Z</time></trkpt><trkpt lat="45.50645012228468" lon="11.918116771554713"><ele>15.0</ele><time>2026-04-03T08:42:03Z</time></trkpt><trkpt lat="45.506383276009544" lon="11.918331926830595"><ele>15.0</ele><time>2026-04-03T08:42:05Z</time></trkpt><trkpt lat="45.506363125734126" lon="11.918453406808789"><ele>15.0</ele><time>2026-04-03T08:42:06Z</time></trkpt><trkpt lat="45.506340578530875" lon="11.918593069361373"><ele>14.75</ele><time>2026-04-03T08:42:07Z</time></trkpt><trkpt lat="45.506312741554595" lon="11.918760520244005"><ele>14.5</ele><time>2026-04-03T08:42:08Z</time></trkpt><trkpt lat="45.50628034457252" lon="11.918943934005835"><ele>14.25</ele><time>2026-04-03T08:42:09Z</time></trkpt><trkpt lat="45.50624002435518" lon="11.91913603782738"><ele>14.0</ele><time>2026-04-03T08:42:10Z</time></trkpt><trkpt lat="45.50620136093845" lon="11.919351233985122"><ele>14.666666666666668</ele><time>2026-04-03T08:42:11Z</time></trkpt><trkpt lat="45.506153787123345" lon="11.919575319014104"><ele>15.333333333333332</ele><time>2026-04-03T08:42:12Z</time></trkpt><trkpt lat="45.50610808085835" lon="11.919810214230965"><ele>16.0</ele><time>2026-04-03T08:42:13Z</time></trkpt><trkpt lat="45.50604453816461" lon="11.920047155663607"><ele>15.5</ele><time>2026-04-03T08:42:14Z</time></trkpt><trkpt lat="45.505938794088884" lon="11.920548584039775"><ele>15.0</ele><time>2026-04-03T08:42:16Z</time></trkpt><trkpt lat="45.505892147381246" lon="11.920767785810865"><ele>14.75</ele><time>2026-04-03T08:42:17Z</time></trkpt><trkpt lat="45.505846912472904" lon="11.920971794699689"><ele>14.5</ele><time>2026-04-03T08:42:18Z</time></trkpt><trkpt lat="45.505806206498235" lon="11.92116780569739"><ele>14.25</ele><time>2026-04-03T08:42:19Z</time></trkpt><trkpt lat="45.5057675882231" lon="11.92135525526424"><ele>14.0</ele><time>2026-04-03T08:42:20Z</time></trkpt><trkpt lat="45.505753038528276" lon="11.921555163465689"><ele>13.666666666666668</ele><time>2026-04-03T08:42:21Z</time></trkpt><trkpt lat="45.5057111998574" lon="11.921754295380868"><ele>13.333333333333332</ele><time>2026-04-03T08:42:22Z</time></trkpt><trkpt lat="45.50566818134661" lon="11.921972368920983"><ele>13.0</ele><time>2026-04-03T08:42:23Z</time></trkpt><trkpt lat="45.505627998308114" lon="11.922203437180162"><ele>13.0</ele><time>2026-04-03T08:42:24Z</time></trkpt><trkpt lat="45.50558902133981" lon="11.922441316263845"><ele>13.0</ele><time>2026-04-03T08:42:25Z</time></trkpt><trkpt lat="45.50554915740351" lon="11.92268797266259"><ele>13.0</ele><time>2026-04-03T08:42:26Z</time></trkpt><trkpt lat="45.50550539141234" lon="11.92294218789118"><ele>13.0</ele><time>2026-04-03T08:42:27Z</time></trkpt><trkpt lat="45.50545723058525" lon="11.923196338354668"><ele>13.0</ele><time>2026-04-03T08:42:28Z</time></trkpt><trkpt lat="45.50540160558927" lon="11.923459140391198"><ele>13.0</ele><time>2026-04-03T08:42:29Z</time></trkpt><trkpt lat="45.50534860904033" lon="11.923728669344666"><ele>13.0</ele><time>2026-04-03T08:42:30Z</time></trkpt><trkpt lat="45.50529559202834" lon="11.9240055346041"><ele>13.0</ele><time>2026-04-03T08:42:31Z</time></trkpt><trkpt lat="45.50522340071582" lon="11.924278823944725"><ele>13.0</ele><time>2026-04-03T08:42:32Z</time></trkpt><trkpt lat="45.505166074625784" lon="11.92456363750754"><ele>12.666666666666666</ele><time>2026-04-03T08:42:33Z</time></trkpt><trkpt lat="45.50510870193488" lon="11.92485204750329"><ele>12.333333333333332</ele><time>2026-04-03T08:42:34Z</time></trkpt><trkpt lat="45.50505088924505" lon="11.925147193234178"><ele>12.0</ele><time>2026-04-03T08:42:35.001Z</time></trkpt><trkpt lat="45.504999343323" lon="11.925449198117205"><ele>12.333333333333332</ele><time>2026-04-03T08:42:36.001Z</time></trkpt><trkpt lat="45.50495213936722" lon="11.925756909062464"><ele>12.666666666666666</ele><time>2026-04-03T08:42:37.001Z</time></trkpt><trkpt lat="45.50491087330808" lon="11.926070803652093"><ele>13.0</ele><time>2026-04-03T08:42:38.001Z</time></trkpt><trkpt lat="45.504868814983055" lon="11.92638688148525"><ele>13.0</ele><time>2026-04-03T08:42:39.001Z</time></trkpt><trkpt lat="45.50482382778424" lon="11.9267081583156"><ele>13.0</ele><time>2026-04-03T08:42:40.001Z</time></trkpt><trkpt lat="45.504772722587624" lon="11.927031370881277"><ele>13.0</ele><time>2026-04-03T08:42:41.001Z</time></trkpt><trkpt lat="45.504725855339515" lon="11.92733440496126"><ele>13.0</ele><time>2026-04-03T08:42:42.001Z</time></trkpt><trkpt lat="45.50468317121969" lon="11.927609701485986"><ele>13.0</ele><time>2026-04-03T08:42:43.001Z</time></trkpt><trkpt lat="45.50464168228521" lon="11.927875088648657"><ele>13.333333333333332</ele><time>2026-04-03T08:42:44.001Z</time></trkpt><trkpt lat="45.50460072696071" lon="11.928137063107751"><ele>13.666666666666668</ele><time>2026-04-03T08:42:45.001Z</time></trkpt><trkpt lat="45.504559460772825" lon="11.928395219882043"><ele>14.0</ele><time>2026-04-03T08:42:46.001Z</time></trkpt><trkpt lat="45.50451521378767" lon="11.928652565980963"><ele>14.0</ele><time>2026-04-03T08:42:47.001Z</time></trkpt><trkpt lat="45.504460491522266" lon="11.928908246122912"><ele>14.0</ele><time>2026-04-03T08:42:48.001Z</time></trkpt><trkpt lat="45.50439826107291" lon="11.929163440119188"><ele>14.0</ele><time>2026-04-03T08:42:49.001Z</time></trkpt><trkpt lat="45.504352544775394" lon="11.929430025400235"><ele>14.333333333333334</ele><time>2026-04-03T08:42:50.001Z</time></trkpt><trkpt lat="45.50427362070924" lon="11.92968040601976"><ele>14.666666666666668</ele><time>2026-04-03T08:42:51.001Z</time></trkpt><trkpt lat="45.50419569622525" lon="11.929934011880169"><ele>15.0</ele><time>2026-04-03T08:42:52.001Z</time></trkpt><trkpt lat="45.504114515680854" lon="11.930179545594992"><ele>14.333333333333332</ele><time>2026-04-03T08:42:53.001Z</time></trkpt><trkpt lat="45.50403816284459" lon="11.930430426228218"><ele>13.666666666666666</ele><time>2026-04-03T08:42:54.001Z</time></trkpt><trkpt lat="45.50396749501788" lon="11.930661449321043"><ele>13.0</ele><time>2026-04-03T08:42:55.001Z</time></trkpt><trkpt lat="45.50390329476907" lon="11.930879843010286"><ele>13.0</ele><time>2026-04-03T08:42:56.001Z</time></trkpt><trkpt lat="45.503825184409465" lon="11.931076675105913"><ele>13.0</ele><time>2026-04-03T08:42:57.001Z</time></trkpt><trkpt lat="45.503767480215636" lon="11.931258379072005"><ele>13.0</ele><time>2026-04-03T08:42:58.001Z</time></trkpt><trkpt lat="45.503724534364174" lon="11.931439959377343"><ele>13.0</ele><time>2026-04-03T08:42:59.001Z</time></trkpt><trkpt lat="45.50365886783548" lon="11.931586293752778"><ele>13.0</ele><time>2026-04-03T08:43:00.001Z</time></trkpt><trkpt lat="45.50358506285715" lon="11.931712851633963"><ele>13.0</ele><time>2026-04-03T08:43:01.001Z</time></trkpt><trkpt lat="45.503490891710186" lon="11.931807273115256"><ele>13.0</ele><time>2026-04-03T08:43:02.001Z</time></trkpt><trkpt lat="45.50340804496518" lon="11.931896644333698"><ele>13.0</ele><time>2026-04-03T08:43:03.001Z</time></trkpt><trkpt lat="45.503303834231254" lon="11.931975512175734"><ele>13.25</ele><time>2026-04-03T08:43:04.001Z</time></trkpt><trkpt lat="45.50318285718379" lon="11.932029953671334"><ele>13.5</ele><time>2026-04-03T08:43:05.001Z</time></trkpt><trkpt lat="45.50304669055979" lon="11.932069924241645"><ele>13.75</ele><time>2026-04-03T08:43:06.001Z</time></trkpt><trkpt lat="45.502907783264234" lon="11.932084521347557"><ele>14.0</ele><time>2026-04-03T08:43:07.001Z</time></trkpt><trkpt lat="45.502762691302316" lon="11.932082142226509"><ele>13.5</ele><time>2026-04-03T08:43:08.001Z</time></trkpt><trkpt lat="45.50263019734077" lon="11.93207009736668"><ele>13.0</ele><time>2026-04-03T08:43:09.001Z</time></trkpt><trkpt lat="45.502505878646396" lon="11.932055826279772"><ele>12.5</ele><time>2026-04-03T08:43:10.001Z</time></trkpt><trkpt lat="45.502396211434835" lon="11.9320577340531"><ele>12.0</ele><time>2026-04-03T08:43:11.001Z</time></trkpt><trkpt lat="45.50229455132355" lon="11.932049178345755"><ele>12.0</ele><time>2026-04-03T08:43:12.001Z</time></trkpt><trkpt lat="45.50221159883661" lon="11.932056988123852"><ele>12.0</ele><time>2026-04-03T08:43:13.001Z</time></trkpt><trkpt lat="45.50213449608969" lon="11.932061211680985"><ele>12.0</ele><time>2026-04-03T08:43:14.001Z</time></trkpt><trkpt lat="45.50205905282225" lon="11.932105086234957"><ele>12.0</ele><time>2026-04-03T08:43:15.001Z</time></trkpt><trkpt lat="45.50186544124689" lon="11.9322909742048"><ele>12.0</ele><time>2026-04-03T08:43:16.001Z</time></trkpt><trkpt lat="45.50176563325334" lon="11.932436770127289"><ele>12.0</ele><time>2026-04-03T08:43:17.001Z</time></trkpt><trkpt lat="45.50165341007225" lon="11.93257382939089"><ele>12.0</ele><time>2026-04-03T08:43:18.001Z</time></trkpt><trkpt lat="45.5015385623012" lon="11.93272419389733"><ele>12.0</ele><time>2026-04-03T08:43:19.001Z</time></trkpt><trkpt lat="45.501416816752716" lon="11.932866717926409"><ele>12.0</ele><time>2026-04-03T08:43:20.001Z</time></trkpt><trkpt lat="45.50127986928657" lon="11.933003941525975"><ele>12.0</ele><time>2026-04-03T08:43:21.001Z</time></trkpt><trkpt lat="45.50114221635256" lon="11.933112673416666"><ele>12.0</ele><time>2026-04-03T08:43:22.001Z</time></trkpt><trkpt lat="45.501014837343874" lon="11.933194883954863"><ele>12.0</ele><time>2026-04-03T08:43:23.001Z</time></trkpt><trkpt lat="45.500886880507586" lon="11.933272803715504"><ele>12.0</ele><time>2026-04-03T08:43:24.001Z</time></trkpt><trkpt lat="45.50076028662463" lon="11.933345873772602"><ele>12.0</ele><time>2026-04-03T08:43:25.001Z</time></trkpt><trkpt lat="45.500637513310544" lon="11.93341482300202"><ele>12.0</ele><time>2026-04-03T08:43:26.001Z</time></trkpt><trkpt lat="45.500523728944245" lon="11.9334811300687"><ele>12.2</ele><time>2026-04-03T08:43:27.001Z</time></trkpt><trkpt lat="45.500418434122686" lon="11.933541316776314"><ele>12.399999999999999</ele><time>2026-04-03T08:43:28.001Z</time></trkpt><trkpt lat="45.500316628697576" lon="11.93359277615038"><ele>12.600000000000001</ele><time>2026-04-03T08:43:29.001Z</time></trkpt><trkpt lat="45.50022115138454" lon="11.933636640665705"><ele>12.8</ele><time>2026-04-03T08:43:30.001Z</time></trkpt><trkpt lat="45.50011604013581" lon="11.933655962226666"><ele>13.0</ele><time>2026-04-03T08:43:31.001Z</time></trkpt><trkpt lat="45.50000400524658" lon="11.933631959807055"><ele>13.0</ele><time>2026-04-03T08:43:32.001Z</time></trkpt><trkpt lat="45.49986611471819" lon="11.933637225534028"><ele>13.0</ele><time>2026-04-03T08:43:33.001Z</time></trkpt><trkpt lat="45.49972068711328" lon="11.933565592341333"><ele>13.0</ele><time>2026-04-03T08:43:34.001Z</time></trkpt><trkpt lat="45.499562816420216" lon="11.933490479336232"><ele>12.666666666666666</ele><time>2026-04-03T08:43:35.001Z</time></trkpt><trkpt lat="45.49939593537438" lon="11.933420211264318"><ele>12.333333333333332</ele><time>2026-04-03T08:43:36.001Z</time></trkpt><trkpt lat="45.4992302020491" lon="11.933320992373575"><ele>12.0</ele><time>2026-04-03T08:43:37.001Z</time></trkpt><trkpt lat="45.499053536986885" lon="11.933248412382245"><ele>12.0</ele><time>2026-04-03T08:43:38.001Z</time></trkpt><trkpt lat="45.49884838853805" lon="11.933188358169348"><ele>12.0</ele><time>2026-04-03T08:43:39.001Z</time></trkpt><trkpt lat="45.4986643910047" lon="11.933089266615502"><ele>12.0</ele><time>2026-04-03T08:43:40.001Z</time></trkpt><trkpt lat="45.49849278640094" lon="11.933018871457099"><ele>11.666666666666666</ele><time>2026-04-03T08:43:41.001Z</time></trkpt><trkpt lat="45.49833765686533" lon="11.93295531863265"><ele>11.333333333333332</ele><time>2026-04-03T08:43:42.001Z</time></trkpt><trkpt lat="45.49819315743381" lon="11.932896120703942"><ele>11.0</ele><time>2026-04-03T08:43:43.001Z</time></trkpt><trkpt lat="45.498057378222924" lon="11.932840410126826"><ele>11.0</ele><time>2026-04-03T08:43:44.001Z</time></trkpt><trkpt lat="45.49792892963723" lon="11.932786807572521"><ele>11.0</ele><time>2026-04-03T08:43:45.001Z</time></trkpt><trkpt lat="45.49780749007898" lon="11.932736129852522"><ele>11.0</ele><time>2026-04-03T08:43:46.001Z</time></trkpt><trkpt lat="45.497695529003636" lon="11.93268940770018"><ele>11.0</ele><time>2026-04-03T08:43:47.001Z</time></trkpt><trkpt lat="45.49760032808909" lon="11.932649679679303"><ele>11.333333333333332</ele><time>2026-04-03T08:43:48.001Z</time></trkpt><trkpt lat="45.49751002534682" lon="11.932611995619768"><ele>11.666666666666666</ele><time>2026-04-03T08:43:49.001Z</time></trkpt><trkpt lat="45.49742246771663" lon="11.932575900964439"><ele>12.0</ele><time>2026-04-03T08:43:50.001Z</time></trkpt><trkpt lat="45.49734883231038" lon="11.932545548778496"><ele>12.333333333333332</ele><time>2026-04-03T08:43:51Z</time></trkpt><trkpt lat="45.497287603729504" lon="11.9325201616654"><ele>12.666666666666666</ele><time>2026-04-03T08:43:52Z</time></trkpt><trkpt lat="45.497207784114444" lon="11.932489454737947"><ele>13.0</ele><time>2026-04-03T08:43:54Z</time></trkpt><trkpt lat="45.497210626292265" lon="11.932308271020057"><ele>12.999999999999998</ele><time>2026-04-03T08:43:57Z</time></trkpt><trkpt lat="45.497229489662516" lon="11.932210886926537"><ele>13.0</ele><time>2026-04-03T08:43:58Z</time></trkpt><trkpt lat="45.49723743264634" lon="11.93208575776292"><ele>13.0</ele><time>2026-04-03T08:43:59Z</time></trkpt><trkpt lat="45.49726569295332" lon="11.931970642696607"><ele>13.0</ele><time>2026-04-03T08:44:00Z</time></trkpt><trkpt lat="45.49729108801962" lon="11.93184506702043"><ele>12.999999999999998</ele><time>2026-04-03T08:44:01Z</time></trkpt><trkpt lat="45.497321293044806" lon="11.931694803799061"><ele>13.0</ele><time>2026-04-03T08:44:02Z</time></trkpt><trkpt lat="45.497355725732916" lon="11.931529485752726"><ele>13.0</ele><time>2026-04-03T08:44:03Z</time></trkpt><trkpt lat="45.49739278932013" lon="11.931355982634336"><ele>13.0</ele><time>2026-04-03T08:44:04Z</time></trkpt><trkpt lat="45.497433365896065" lon="11.931163873149275"><ele>13.0</ele><time>2026-04-03T08:44:05Z</time></trkpt><trkpt lat="45.49747172802086" lon="11.930970859792271"><ele>13.0</ele><time>2026-04-03T08:44:06Z</time></trkpt><trkpt lat="45.49751306088574" lon="11.930756877030653"><ele>12.666666666666666</ele><time>2026-04-03T08:44:07Z</time></trkpt><trkpt lat="45.49755783413739" lon="11.930533189125907"><ele>12.333333333333332</ele><time>2026-04-03T08:44:08Z</time></trkpt><trkpt lat="45.49760227407024" lon="11.930312917701022"><ele>12.0</ele><time>2026-04-03T08:44:09Z</time></trkpt><trkpt lat="45.49764820017501" lon="11.930095245769792"><ele>12.0</ele><time>2026-04-03T08:44:10Z</time></trkpt><trkpt lat="45.49769402673904" lon="11.92986953984553"><ele>12.0</ele><time>2026-04-03T08:44:11Z</time></trkpt><trkpt lat="45.49774283891239" lon="11.92964053972033"><ele>12.0</ele><time>2026-04-03T08:44:12Z</time></trkpt><trkpt lat="45.49779124190574" lon="11.929408782064616"><ele>12.333333333333332</ele><time>2026-04-03T08:44:13Z</time></trkpt><trkpt lat="45.497839334494024" lon="11.929173277264304"><ele>12.666666666666666</ele><time>2026-04-03T08:44:14Z</time></trkpt><trkpt lat="45.497886032711264" lon="11.928935512639864"><ele>13.0</ele><time>2026-04-03T08:44:15Z</time></trkpt><trkpt lat="45.49795518752298" lon="11.928687230427395"><ele>12.333333333333332</ele><time>2026-04-03T08:44:16Z</time></trkpt><trkpt lat="45.497988015417256" lon="11.928450352671687"><ele>11.666666666666666</ele><time>2026-04-03T08:44:17Z</time></trkpt><trkpt lat="45.498038194681634" lon="11.928216353671756"><ele>11.0</ele><time>2026-04-03T08:44:18Z</time></trkpt><trkpt lat="45.49808397938265" lon="11.927995044937811"><ele>11.0</ele><time>2026-04-03T08:44:19Z</time></trkpt><trkpt lat="45.49813023999038" lon="11.927786067211871"><ele>11.0</ele><time>2026-04-03T08:44:20Z</time></trkpt><trkpt lat="45.49817990898032" lon="11.92756902457966"><ele>11.0</ele><time>2026-04-03T08:44:21Z</time></trkpt><trkpt lat="45.49822592600154" lon="11.927347979678348"><ele>12.0</ele><time>2026-04-03T08:44:22Z</time></trkpt><trkpt lat="45.498277181148715" lon="11.927142086370063"><ele>13.0</ele><time>2026-04-03T08:44:23Z</time></trkpt><trkpt lat="45.49832574820133" lon="11.926926613341845"><ele>14.0</ele><time>2026-04-03T08:44:24Z</time></trkpt><trkpt lat="45.498368936289495" lon="11.926706777847258"><ele>14.333333333333334</ele><time>2026-04-03T08:44:25Z</time></trkpt><trkpt lat="45.498408385141936" lon="11.926496200848872"><ele>14.666666666666668</ele><time>2026-04-03T08:44:26Z</time></trkpt><trkpt lat="45.49845646763054" lon="11.926280877639226"><ele>15.0</ele><time>2026-04-03T08:44:27Z</time></trkpt><trkpt lat="45.4984886428314" lon="11.926064586762228"><ele>15.333333333333332</ele><time>2026-04-03T08:44:28Z</time></trkpt><trkpt lat="45.498523699031104" lon="11.925850361746825"><ele>15.666666666666666</ele><time>2026-04-03T08:44:29Z</time></trkpt><trkpt lat="45.49855920776729" lon="11.925623441023621"><ele>16.0</ele><time>2026-04-03T08:44:30Z</time></trkpt><trkpt lat="45.49859619220904" lon="11.925406898836417"><ele>16.0</ele><time>2026-04-03T08:44:31Z</time></trkpt><trkpt lat="45.49863475488589" lon="11.925208514182906"><ele>16.0</ele><time>2026-04-03T08:44:32Z</time></trkpt><trkpt lat="45.49866346781699" lon="11.925019148841642"><ele>16.0</ele><time>2026-04-03T08:44:33Z</time></trkpt><trkpt lat="45.49869134860189" lon="11.92484302684572"><ele>16.0</ele><time>2026-04-03T08:44:34Z</time></trkpt><trkpt lat="45.49871915010011" lon="11.924672231748753"><ele>15.8</ele><time>2026-04-03T08:44:35Z</time></trkpt><trkpt lat="45.49874609751237" lon="11.924518002122506"><ele>15.600000000000001</ele><time>2026-04-03T08:44:36Z</time></trkpt><trkpt lat="45.49877273358989" lon="11.92437632672092"><ele>15.4</ele><time>2026-04-03T08:44:37Z</time></trkpt><trkpt lat="45.498792246979704" lon="11.924259400221919"><ele>15.2</ele><time>2026-04-03T08:44:38.001Z</time></trkpt><trkpt lat="45.49880975878403" lon="11.924160645538366"><ele>15.0</ele><time>2026-04-03T08:44:39.001Z</time></trkpt><trkpt lat="45.49884086517412" lon="11.924012672347516"><ele>14.0</ele><time>2026-04-03T08:44:41.001Z</time></trkpt><trkpt lat="45.49890057523693" lon="11.923970096132106"><ele>14.0</ele><time>2026-04-03T08:44:43.001Z</time></trkpt><trkpt lat="45.498958010311334" lon="11.924041744871534"><ele>14.0</ele><time>2026-04-03T08:44:45.001Z</time></trkpt><trkpt lat="45.49899243460312" lon="11.924158121838852"><ele>14.0</ele><time>2026-04-03T08:44:47.001Z</time></trkpt><trkpt lat="45.499033640438405" lon="11.924269511206202"><ele>15.0</ele><time>2026-04-03T08:44:49.001Z</time></trkpt><trkpt lat="45.49906773316496" lon="11.924361671321757"><ele>15.0</ele><time>2026-04-03T08:44:52.001Z</time></trkpt></trkseg></trk></gpx>